<?xml version="1.0" encoding="UTF-8" standalone="no" ?>
<gpx xmlns="http://www.topografix.com/GPX/1/1" xmlns:xsi="http://www.w3.org/2001/XMLSchema-instance" xsi:schemaLocation="http://www.topografix.com/GPX/1/1 http://www.topografix.com/GPX/1/1/gpx.xsd" version="1.1" creator="VisuGPX - https://www.visugpx.com">
  <metadata>
    <name>sortie du 3/05/2011 groupe 2</name>
    <desc><![CDATA[Sortie avec le groupe 2 un peu ventée]]></desc>
  </metadata>
  <trk>
    <name><![CDATA[ACTIVE LOG 008]]></name>
    <trkseg>
      <trkpt lat="47.07587" lon="5.49103">
        <ele>194.32373</ele>
        <time>2011-05-03T11:47:37Z</time>
      </trkpt>
      <trkpt lat="47.07603" lon="5.49081">
        <ele>194.804321</ele>
        <time>2011-05-03T11:47:51Z</time>
      </trkpt>
      <trkpt lat="47.07612" lon="5.49068">
        <ele>197.20752</ele>
        <time>2011-05-03T11:47:57Z</time>
      </trkpt>
      <trkpt lat="47.07641" lon="5.49029">
        <ele>195.765625</ele>
        <time>2011-05-03T11:48:14Z</time>
      </trkpt>
      <trkpt lat="47.07681" lon="5.4898">
        <ele>195.765625</ele>
        <time>2011-05-03T11:48:28Z</time>
      </trkpt>
      <trkpt lat="47.07687" lon="5.48973">
        <ele>195.284912</ele>
        <time>2011-05-03T11:48:30Z</time>
      </trkpt>
      <trkpt lat="47.07696" lon="5.48927">
        <ele>194.804321</ele>
        <time>2011-05-03T11:48:38Z</time>
      </trkpt>
      <trkpt lat="47.07707" lon="5.48902">
        <ele>195.765625</ele>
        <time>2011-05-03T11:48:43Z</time>
      </trkpt>
      <trkpt lat="47.07737" lon="5.48901">
        <ele>194.804321</ele>
        <time>2011-05-03T11:48:53Z</time>
      </trkpt>
      <trkpt lat="47.0774" lon="5.48938">
        <ele>194.32373</ele>
        <time>2011-05-03T11:49:04Z</time>
      </trkpt>
      <trkpt lat="47.0771" lon="5.48971">
        <ele>194.32373</ele>
        <time>2011-05-03T11:49:13Z</time>
      </trkpt>
      <trkpt lat="47.07622" lon="5.49075">
        <ele>196.246338</ele>
        <time>2011-05-03T11:49:37Z</time>
      </trkpt>
      <trkpt lat="47.07561" lon="5.49179">
        <ele>196.246338</ele>
        <time>2011-05-03T11:49:58Z</time>
      </trkpt>
      <trkpt lat="47.07553" lon="5.49194">
        <ele>196.726929</ele>
        <time>2011-05-03T11:50:01Z</time>
      </trkpt>
      <trkpt lat="47.07498" lon="5.493">
        <ele>197.20752</ele>
        <time>2011-05-03T11:50:22Z</time>
      </trkpt>
      <trkpt lat="47.0746" lon="5.49375">
        <ele>199.61084</ele>
        <time>2011-05-03T11:50:40Z</time>
      </trkpt>
      <trkpt lat="47.07428" lon="5.4941">
        <ele>202.014282</ele>
        <time>2011-05-03T11:50:54Z</time>
      </trkpt>
      <trkpt lat="47.07396" lon="5.49389">
        <ele>203.456177</ele>
        <time>2011-05-03T11:51:07Z</time>
      </trkpt>
      <trkpt lat="47.07361" lon="5.49348">
        <ele>205.859497</ele>
        <time>2011-05-03T11:51:22Z</time>
      </trkpt>
      <trkpt lat="47.07293" lon="5.49263">
        <ele>207.301392</ele>
        <time>2011-05-03T11:51:47Z</time>
      </trkpt>
      <trkpt lat="47.07281" lon="5.49247">
        <ele>207.301392</ele>
        <time>2011-05-03T11:51:51Z</time>
      </trkpt>
      <trkpt lat="47.07258" lon="5.49219">
        <ele>207.301392</ele>
        <time>2011-05-03T11:51:57Z</time>
      </trkpt>
      <trkpt lat="47.07235" lon="5.4918">
        <ele>206.340088</ele>
        <time>2011-05-03T11:52:03Z</time>
      </trkpt>
      <trkpt lat="47.07198" lon="5.49069">
        <ele>205.378784</ele>
        <time>2011-05-03T11:52:18Z</time>
      </trkpt>
      <trkpt lat="47.07164" lon="5.48992">
        <ele>204.41748</ele>
        <time>2011-05-03T11:52:28Z</time>
      </trkpt>
      <trkpt lat="47.07101" lon="5.48873">
        <ele>204.41748</ele>
        <time>2011-05-03T11:52:45Z</time>
      </trkpt>
      <trkpt lat="47.07034" lon="5.48784">
        <ele>204.41748</ele>
        <time>2011-05-03T11:53:02Z</time>
      </trkpt>
      <trkpt lat="47.06997" lon="5.48746">
        <ele>203.93689</ele>
        <time>2011-05-03T11:53:10Z</time>
      </trkpt>
      <trkpt lat="47.06986" lon="5.48725">
        <ele>202.494873</ele>
        <time>2011-05-03T11:53:13Z</time>
      </trkpt>
      <trkpt lat="47.06965" lon="5.48709">
        <ele>202.494873</ele>
        <time>2011-05-03T11:53:18Z</time>
      </trkpt>
      <trkpt lat="47.06909" lon="5.48704">
        <ele>203.456177</ele>
        <time>2011-05-03T11:53:30Z</time>
      </trkpt>
      <trkpt lat="47.06889" lon="5.48715">
        <ele>203.93689</ele>
        <time>2011-05-03T11:53:34Z</time>
      </trkpt>
      <trkpt lat="47.0677" lon="5.48831">
        <ele>205.378784</ele>
        <time>2011-05-03T11:54:01Z</time>
      </trkpt>
      <trkpt lat="47.06748" lon="5.48851">
        <ele>205.378784</ele>
        <time>2011-05-03T11:54:06Z</time>
      </trkpt>
      <trkpt lat="47.06712" lon="5.48843">
        <ele>204.898071</ele>
        <time>2011-05-03T11:54:14Z</time>
      </trkpt>
      <trkpt lat="47.06672" lon="5.48786">
        <ele>202.975464</ele>
        <time>2011-05-03T11:54:23Z</time>
      </trkpt>
      <trkpt lat="47.06654" lon="5.48751">
        <ele>201.052856</ele>
        <time>2011-05-03T11:54:27Z</time>
      </trkpt>
      <trkpt lat="47.0664" lon="5.48672">
        <ele>201.052856</ele>
        <time>2011-05-03T11:54:34Z</time>
      </trkpt>
      <trkpt lat="47.06644" lon="5.4864">
        <ele>201.052856</ele>
        <time>2011-05-03T11:54:37Z</time>
      </trkpt>
      <trkpt lat="47.06664" lon="5.48547">
        <ele>202.494873</ele>
        <time>2011-05-03T11:54:49Z</time>
      </trkpt>
      <trkpt lat="47.06667" lon="5.4849">
        <ele>202.494873</ele>
        <time>2011-05-03T11:54:57Z</time>
      </trkpt>
      <trkpt lat="47.06646" lon="5.48452">
        <ele>202.975464</ele>
        <time>2011-05-03T11:55:04Z</time>
      </trkpt>
      <trkpt lat="47.06599" lon="5.4844">
        <ele>202.014282</ele>
        <time>2011-05-03T11:55:13Z</time>
      </trkpt>
      <trkpt lat="47.06579" lon="5.48421">
        <ele>200.572266</ele>
        <time>2011-05-03T11:55:17Z</time>
      </trkpt>
      <trkpt lat="47.06567" lon="5.48388">
        <ele>200.091675</ele>
        <time>2011-05-03T11:55:21Z</time>
      </trkpt>
      <trkpt lat="47.06553" lon="5.48335">
        <ele>199.61084</ele>
        <time>2011-05-03T11:55:27Z</time>
      </trkpt>
      <trkpt lat="47.06528" lon="5.48296">
        <ele>200.091675</ele>
        <time>2011-05-03T11:55:33Z</time>
      </trkpt>
      <trkpt lat="47.06452" lon="5.48272">
        <ele>199.61084</ele>
        <time>2011-05-03T11:55:47Z</time>
      </trkpt>
      <trkpt lat="47.06359" lon="5.48231">
        <ele>196.726929</ele>
        <time>2011-05-03T11:56:02Z</time>
      </trkpt>
      <trkpt lat="47.06351" lon="5.48227">
        <ele>196.726929</ele>
        <time>2011-05-03T11:56:03Z</time>
      </trkpt>
      <trkpt lat="47.06261" lon="5.48211">
        <ele>194.804321</ele>
        <time>2011-05-03T11:56:13Z</time>
      </trkpt>
      <trkpt lat="47.06187" lon="5.48238">
        <ele>193.362305</ele>
        <time>2011-05-03T11:56:23Z</time>
      </trkpt>
      <trkpt lat="47.06151" lon="5.48258">
        <ele>193.362305</ele>
        <time>2011-05-03T11:56:29Z</time>
      </trkpt>
      <trkpt lat="47.06093" lon="5.48289">
        <ele>192.401123</ele>
        <time>2011-05-03T11:56:38Z</time>
      </trkpt>
      <trkpt lat="47.06016" lon="5.48303">
        <ele>191.439575</ele>
        <time>2011-05-03T11:56:50Z</time>
      </trkpt>
      <trkpt lat="47.05896" lon="5.48335">
        <ele>191.439575</ele>
        <time>2011-05-03T11:57:09Z</time>
      </trkpt>
      <trkpt lat="47.05767" lon="5.48405">
        <ele>191.920288</ele>
        <time>2011-05-03T11:57:32Z</time>
      </trkpt>
      <trkpt lat="47.05729" lon="5.48372">
        <ele>190.958984</ele>
        <time>2011-05-03T11:57:40Z</time>
      </trkpt>
      <trkpt lat="47.05708" lon="5.48328">
        <ele>190.478394</ele>
        <time>2011-05-03T11:57:46Z</time>
      </trkpt>
      <trkpt lat="47.05688" lon="5.48306">
        <ele>190.958984</ele>
        <time>2011-05-03T11:57:50Z</time>
      </trkpt>
      <trkpt lat="47.05589" lon="5.48279">
        <ele>190.958984</ele>
        <time>2011-05-03T11:58:07Z</time>
      </trkpt>
      <trkpt lat="47.05519" lon="5.483">
        <ele>190.958984</ele>
        <time>2011-05-03T11:58:19Z</time>
      </trkpt>
      <trkpt lat="47.05392" lon="5.48335">
        <ele>189.997681</ele>
        <time>2011-05-03T11:58:39Z</time>
      </trkpt>
      <trkpt lat="47.05285" lon="5.48294">
        <ele>190.478394</ele>
        <time>2011-05-03T11:58:56Z</time>
      </trkpt>
      <trkpt lat="47.05185" lon="5.48194">
        <ele>190.958984</ele>
        <time>2011-05-03T11:59:15Z</time>
      </trkpt>
      <trkpt lat="47.05104" lon="5.48043">
        <ele>190.958984</ele>
        <time>2011-05-03T11:59:36Z</time>
      </trkpt>
      <trkpt lat="47.05088" lon="5.47992">
        <ele>190.478394</ele>
        <time>2011-05-03T11:59:42Z</time>
      </trkpt>
      <trkpt lat="47.05065" lon="5.4796">
        <ele>190.478394</ele>
        <time>2011-05-03T11:59:47Z</time>
      </trkpt>
      <trkpt lat="47.04912" lon="5.47841">
        <ele>190.478394</ele>
        <time>2011-05-03T12:00:13Z</time>
      </trkpt>
      <trkpt lat="47.04761" lon="5.47794">
        <ele>189.997681</ele>
        <time>2011-05-03T12:00:36Z</time>
      </trkpt>
      <trkpt lat="47.0466" lon="5.47732">
        <ele>189.516968</ele>
        <time>2011-05-03T12:00:52Z</time>
      </trkpt>
      <trkpt lat="47.04539" lon="5.47599">
        <ele>189.997681</ele>
        <time>2011-05-03T12:01:14Z</time>
      </trkpt>
      <trkpt lat="47.04393" lon="5.47442">
        <ele>189.997681</ele>
        <time>2011-05-03T12:01:40Z</time>
      </trkpt>
      <trkpt lat="47.04287" lon="5.47363">
        <ele>189.997681</ele>
        <time>2011-05-03T12:01:58Z</time>
      </trkpt>
      <trkpt lat="47.04281" lon="5.47312">
        <ele>190.958984</ele>
        <time>2011-05-03T12:02:05Z</time>
      </trkpt>
      <trkpt lat="47.04299" lon="5.47247">
        <ele>190.958984</ele>
        <time>2011-05-03T12:02:14Z</time>
      </trkpt>
      <trkpt lat="47.04306" lon="5.47174">
        <ele>190.478394</ele>
        <time>2011-05-03T12:02:23Z</time>
      </trkpt>
      <trkpt lat="47.04332" lon="5.4715">
        <ele>190.478394</ele>
        <time>2011-05-03T12:02:29Z</time>
      </trkpt>
      <trkpt lat="47.04468" lon="5.47115">
        <ele>190.958984</ele>
        <time>2011-05-03T12:02:54Z</time>
      </trkpt>
      <trkpt lat="47.04592" lon="5.47086">
        <ele>190.478394</ele>
        <time>2011-05-03T12:03:16Z</time>
      </trkpt>
      <trkpt lat="47.04661" lon="5.47067">
        <ele>190.478394</ele>
        <time>2011-05-03T12:03:29Z</time>
      </trkpt>
      <trkpt lat="47.04686" lon="5.47058">
        <ele>189.997681</ele>
        <time>2011-05-03T12:03:34Z</time>
      </trkpt>
      <trkpt lat="47.04702" lon="5.47054">
        <ele>189.997681</ele>
        <time>2011-05-03T12:03:37Z</time>
      </trkpt>
      <trkpt lat="47.04781" lon="5.47026">
        <ele>189.516968</ele>
        <time>2011-05-03T12:03:53Z</time>
      </trkpt>
      <trkpt lat="47.04938" lon="5.4697">
        <ele>190.478394</ele>
        <time>2011-05-03T12:04:22Z</time>
      </trkpt>
      <trkpt lat="47.05008" lon="5.46904">
        <ele>190.958984</ele>
        <time>2011-05-03T12:04:36Z</time>
      </trkpt>
      <trkpt lat="47.05148" lon="5.46735">
        <ele>190.478394</ele>
        <time>2011-05-03T12:05:07Z</time>
      </trkpt>
      <trkpt lat="47.05266" lon="5.46599">
        <ele>189.997681</ele>
        <time>2011-05-03T12:05:33Z</time>
      </trkpt>
      <trkpt lat="47.05368" lon="5.46512">
        <ele>191.439575</ele>
        <time>2011-05-03T12:05:55Z</time>
      </trkpt>
      <trkpt lat="47.05419" lon="5.46467">
        <ele>193.362305</ele>
        <time>2011-05-03T12:06:06Z</time>
      </trkpt>
      <trkpt lat="47.05498" lon="5.46383">
        <ele>194.32373</ele>
        <time>2011-05-03T12:06:25Z</time>
      </trkpt>
      <trkpt lat="47.05546" lon="5.46336">
        <ele>193.362305</ele>
        <time>2011-05-03T12:06:37Z</time>
      </trkpt>
      <trkpt lat="47.05618" lon="5.46317">
        <ele>191.439575</ele>
        <time>2011-05-03T12:06:51Z</time>
      </trkpt>
      <trkpt lat="47.05698" lon="5.46331">
        <ele>190.478394</ele>
        <time>2011-05-03T12:07:06Z</time>
      </trkpt>
      <trkpt lat="47.05837" lon="5.46352">
        <ele>190.478394</ele>
        <time>2011-05-03T12:07:32Z</time>
      </trkpt>
      <trkpt lat="47.05858" lon="5.46346">
        <ele>189.997681</ele>
        <time>2011-05-03T12:07:36Z</time>
      </trkpt>
      <trkpt lat="47.05962" lon="5.46262">
        <ele>189.997681</ele>
        <time>2011-05-03T12:07:57Z</time>
      </trkpt>
      <trkpt lat="47.06051" lon="5.46191">
        <ele>191.920288</ele>
        <time>2011-05-03T12:08:17Z</time>
      </trkpt>
      <trkpt lat="47.06068" lon="5.4617">
        <ele>192.401123</ele>
        <time>2011-05-03T12:08:21Z</time>
      </trkpt>
      <trkpt lat="47.06095" lon="5.46111">
        <ele>194.804321</ele>
        <time>2011-05-03T12:08:32Z</time>
      </trkpt>
      <trkpt lat="47.061" lon="5.46097">
        <ele>194.804321</ele>
        <time>2011-05-03T12:08:36Z</time>
      </trkpt>
      <trkpt lat="47.06085" lon="5.46077">
        <ele>191.920288</ele>
        <time>2011-05-03T12:08:43Z</time>
      </trkpt>
      <trkpt lat="47.06066" lon="5.46054">
        <ele>191.439575</ele>
        <time>2011-05-03T12:08:47Z</time>
      </trkpt>
      <trkpt lat="47.06021" lon="5.45927">
        <ele>190.958984</ele>
        <time>2011-05-03T12:09:04Z</time>
      </trkpt>
      <trkpt lat="47.05965" lon="5.45747">
        <ele>190.958984</ele>
        <time>2011-05-03T12:09:29Z</time>
      </trkpt>
      <trkpt lat="47.05912" lon="5.45573">
        <ele>191.920288</ele>
        <time>2011-05-03T12:09:53Z</time>
      </trkpt>
      <trkpt lat="47.05849" lon="5.45375">
        <ele>192.881714</ele>
        <time>2011-05-03T12:10:17Z</time>
      </trkpt>
      <trkpt lat="47.05796" lon="5.45206">
        <ele>192.401123</ele>
        <time>2011-05-03T12:10:36Z</time>
      </trkpt>
      <trkpt lat="47.05723" lon="5.44971">
        <ele>192.401123</ele>
        <time>2011-05-03T12:11:02Z</time>
      </trkpt>
      <trkpt lat="47.0565" lon="5.44745">
        <ele>191.439575</ele>
        <time>2011-05-03T12:11:27Z</time>
      </trkpt>
      <trkpt lat="47.0559" lon="5.44547">
        <ele>191.439575</ele>
        <time>2011-05-03T12:11:51Z</time>
      </trkpt>
      <trkpt lat="47.0555" lon="5.44415">
        <ele>191.439575</ele>
        <time>2011-05-03T12:12:07Z</time>
      </trkpt>
      <trkpt lat="47.05564" lon="5.44331">
        <ele>192.881714</ele>
        <time>2011-05-03T12:12:17Z</time>
      </trkpt>
      <trkpt lat="47.05603" lon="5.44277">
        <ele>191.920288</ele>
        <time>2011-05-03T12:12:26Z</time>
      </trkpt>
      <trkpt lat="47.05616" lon="5.44263">
        <ele>191.920288</ele>
        <time>2011-05-03T12:12:29Z</time>
      </trkpt>
      <trkpt lat="47.05636" lon="5.44226">
        <ele>191.439575</ele>
        <time>2011-05-03T12:12:35Z</time>
      </trkpt>
      <trkpt lat="47.05653" lon="5.44202">
        <ele>189.997681</ele>
        <time>2011-05-03T12:12:40Z</time>
      </trkpt>
      <trkpt lat="47.05668" lon="5.44198">
        <ele>190.958984</ele>
        <time>2011-05-03T12:12:44Z</time>
      </trkpt>
      <trkpt lat="47.05732" lon="5.44122">
        <ele>190.478394</ele>
        <time>2011-05-03T12:13:00Z</time>
      </trkpt>
      <trkpt lat="47.05869" lon="5.43941">
        <ele>190.958984</ele>
        <time>2011-05-03T12:13:30Z</time>
      </trkpt>
      <trkpt lat="47.05953" lon="5.4382">
        <ele>189.997681</ele>
        <time>2011-05-03T12:13:49Z</time>
      </trkpt>
      <trkpt lat="47.05963" lon="5.43797">
        <ele>189.997681</ele>
        <time>2011-05-03T12:13:52Z</time>
      </trkpt>
      <trkpt lat="47.05974" lon="5.43758">
        <ele>189.997681</ele>
        <time>2011-05-03T12:13:57Z</time>
      </trkpt>
      <trkpt lat="47.05978" lon="5.43709">
        <ele>190.478394</ele>
        <time>2011-05-03T12:14:03Z</time>
      </trkpt>
      <trkpt lat="47.05972" lon="5.43562">
        <ele>189.997681</ele>
        <time>2011-05-03T12:14:19Z</time>
      </trkpt>
      <trkpt lat="47.05971" lon="5.43479">
        <ele>189.036377</ele>
        <time>2011-05-03T12:14:29Z</time>
      </trkpt>
      <trkpt lat="47.05972" lon="5.43328">
        <ele>189.516968</ele>
        <time>2011-05-03T12:14:47Z</time>
      </trkpt>
      <trkpt lat="47.05972" lon="5.43091">
        <ele>189.997681</ele>
        <time>2011-05-03T12:15:12Z</time>
      </trkpt>
      <trkpt lat="47.05973" lon="5.42999">
        <ele>189.516968</ele>
        <time>2011-05-03T12:15:22Z</time>
      </trkpt>
      <trkpt lat="47.05965" lon="5.42959">
        <ele>189.516968</ele>
        <time>2011-05-03T12:15:27Z</time>
      </trkpt>
      <trkpt lat="47.05971" lon="5.42923">
        <ele>189.516968</ele>
        <time>2011-05-03T12:15:32Z</time>
      </trkpt>
      <trkpt lat="47.05972" lon="5.42792">
        <ele>189.516968</ele>
        <time>2011-05-03T12:15:47Z</time>
      </trkpt>
      <trkpt lat="47.05972" lon="5.42678">
        <ele>191.920288</ele>
        <time>2011-05-03T12:16:04Z</time>
      </trkpt>
      <trkpt lat="47.05965" lon="5.42675">
        <ele>192.401123</ele>
        <time>2011-05-03T12:16:08Z</time>
      </trkpt>
      <trkpt lat="47.05952" lon="5.42676">
        <ele>192.401123</ele>
        <time>2011-05-03T12:16:13Z</time>
      </trkpt>
      <trkpt lat="47.05946" lon="5.42628">
        <ele>190.478394</ele>
        <time>2011-05-03T12:16:20Z</time>
      </trkpt>
      <trkpt lat="47.05949" lon="5.42454">
        <ele>189.997681</ele>
        <time>2011-05-03T12:16:38Z</time>
      </trkpt>
      <trkpt lat="47.05949" lon="5.42251">
        <ele>189.997681</ele>
        <time>2011-05-03T12:17:01Z</time>
      </trkpt>
      <trkpt lat="47.05948" lon="5.42094">
        <ele>189.997681</ele>
        <time>2011-05-03T12:17:21Z</time>
      </trkpt>
      <trkpt lat="47.05946" lon="5.419">
        <ele>189.516968</ele>
        <time>2011-05-03T12:17:43Z</time>
      </trkpt>
      <trkpt lat="47.05948" lon="5.41729">
        <ele>189.036377</ele>
        <time>2011-05-03T12:18:01Z</time>
      </trkpt>
      <trkpt lat="47.05947" lon="5.41569">
        <ele>188.555786</ele>
        <time>2011-05-03T12:18:19Z</time>
      </trkpt>
      <trkpt lat="47.05944" lon="5.41392">
        <ele>189.516968</ele>
        <time>2011-05-03T12:18:40Z</time>
      </trkpt>
      <trkpt lat="47.05944" lon="5.41279">
        <ele>190.478394</ele>
        <time>2011-05-03T12:18:54Z</time>
      </trkpt>
      <trkpt lat="47.05943" lon="5.41273">
        <ele>190.478394</ele>
        <time>2011-05-03T12:19:03Z</time>
      </trkpt>
      <trkpt lat="47.05936" lon="5.41268">
        <ele>190.958984</ele>
        <time>2011-05-03T12:19:07Z</time>
      </trkpt>
      <trkpt lat="47.05925" lon="5.41266">
        <ele>190.958984</ele>
        <time>2011-05-03T12:19:10Z</time>
      </trkpt>
      <trkpt lat="47.05851" lon="5.41265">
        <ele>189.036377</ele>
        <time>2011-05-03T12:19:22Z</time>
      </trkpt>
      <trkpt lat="47.05844" lon="5.41267">
        <ele>188.555786</ele>
        <time>2011-05-03T12:19:23Z</time>
      </trkpt>
      <trkpt lat="47.05823" lon="5.41282">
        <ele>188.555786</ele>
        <time>2011-05-03T12:19:27Z</time>
      </trkpt>
      <trkpt lat="47.05795" lon="5.41332">
        <ele>187.59436</ele>
        <time>2011-05-03T12:19:35Z</time>
      </trkpt>
      <trkpt lat="47.05776" lon="5.41366">
        <ele>188.075073</ele>
        <time>2011-05-03T12:19:40Z</time>
      </trkpt>
      <trkpt lat="47.0575" lon="5.41384">
        <ele>187.59436</ele>
        <time>2011-05-03T12:19:45Z</time>
      </trkpt>
      <trkpt lat="47.0558" lon="5.41386">
        <ele>187.11377</ele>
        <time>2011-05-03T12:20:12Z</time>
      </trkpt>
      <trkpt lat="47.05408" lon="5.41388">
        <ele>187.59436</ele>
        <time>2011-05-03T12:20:39Z</time>
      </trkpt>
      <trkpt lat="47.05286" lon="5.41389">
        <ele>187.59436</ele>
        <time>2011-05-03T12:20:59Z</time>
      </trkpt>
      <trkpt lat="47.05275" lon="5.41388">
        <ele>188.075073</ele>
        <time>2011-05-03T12:21:01Z</time>
      </trkpt>
      <trkpt lat="47.05249" lon="5.4137">
        <ele>187.11377</ele>
        <time>2011-05-03T12:21:06Z</time>
      </trkpt>
      <trkpt lat="47.05228" lon="5.41374">
        <ele>187.59436</ele>
        <time>2011-05-03T12:21:10Z</time>
      </trkpt>
      <trkpt lat="47.05218" lon="5.41382">
        <ele>188.075073</ele>
        <time>2011-05-03T12:21:12Z</time>
      </trkpt>
      <trkpt lat="47.05112" lon="5.41387">
        <ele>187.11377</ele>
        <time>2011-05-03T12:21:30Z</time>
      </trkpt>
      <trkpt lat="47.04975" lon="5.41388">
        <ele>187.11377</ele>
        <time>2011-05-03T12:21:52Z</time>
      </trkpt>
      <trkpt lat="47.04888" lon="5.41389">
        <ele>187.59436</ele>
        <time>2011-05-03T12:22:06Z</time>
      </trkpt>
      <trkpt lat="47.04867" lon="5.41377">
        <ele>187.59436</ele>
        <time>2011-05-03T12:22:10Z</time>
      </trkpt>
      <trkpt lat="47.04841" lon="5.4138">
        <ele>187.59436</ele>
        <time>2011-05-03T12:22:15Z</time>
      </trkpt>
      <trkpt lat="47.04794" lon="5.41382">
        <ele>187.59436</ele>
        <time>2011-05-03T12:22:23Z</time>
      </trkpt>
      <trkpt lat="47.04771" lon="5.41369">
        <ele>187.59436</ele>
        <time>2011-05-03T12:22:27Z</time>
      </trkpt>
      <trkpt lat="47.04747" lon="5.41368">
        <ele>188.075073</ele>
        <time>2011-05-03T12:22:31Z</time>
      </trkpt>
      <trkpt lat="47.04719" lon="5.41362">
        <ele>187.59436</ele>
        <time>2011-05-03T12:22:36Z</time>
      </trkpt>
      <trkpt lat="47.04585" lon="5.41315">
        <ele>187.11377</ele>
        <time>2011-05-03T12:22:59Z</time>
      </trkpt>
      <trkpt lat="47.04471" lon="5.41279">
        <ele>187.59436</ele>
        <time>2011-05-03T12:23:18Z</time>
      </trkpt>
      <trkpt lat="47.04465" lon="5.41278">
        <ele>187.11377</ele>
        <time>2011-05-03T12:23:19Z</time>
      </trkpt>
      <trkpt lat="47.04361" lon="5.4127">
        <ele>187.59436</ele>
        <time>2011-05-03T12:23:35Z</time>
      </trkpt>
      <trkpt lat="47.0434" lon="5.41253">
        <ele>188.075073</ele>
        <time>2011-05-03T12:23:40Z</time>
      </trkpt>
      <trkpt lat="47.04323" lon="5.41256">
        <ele>188.075073</ele>
        <time>2011-05-03T12:23:44Z</time>
      </trkpt>
      <trkpt lat="47.04314" lon="5.41265">
        <ele>187.59436</ele>
        <time>2011-05-03T12:23:46Z</time>
      </trkpt>
      <trkpt lat="47.04292" lon="5.41272">
        <ele>188.075073</ele>
        <time>2011-05-03T12:23:50Z</time>
      </trkpt>
      <trkpt lat="47.04163" lon="5.41266">
        <ele>188.075073</ele>
        <time>2011-05-03T12:24:10Z</time>
      </trkpt>
      <trkpt lat="47.04004" lon="5.41263">
        <ele>188.555786</ele>
        <time>2011-05-03T12:24:32Z</time>
      </trkpt>
      <trkpt lat="47.03902" lon="5.41263">
        <ele>187.59436</ele>
        <time>2011-05-03T12:24:46Z</time>
      </trkpt>
      <trkpt lat="47.03872" lon="5.41262">
        <ele>187.59436</ele>
        <time>2011-05-03T12:24:51Z</time>
      </trkpt>
      <trkpt lat="47.03855" lon="5.41269">
        <ele>187.11377</ele>
        <time>2011-05-03T12:24:59Z</time>
      </trkpt>
      <trkpt lat="47.03855" lon="5.4127">
        <ele>187.59436</ele>
        <time>2011-05-03T12:25:02Z</time>
      </trkpt>
      <trkpt lat="47.03856" lon="5.41285">
        <ele>188.075073</ele>
        <time>2011-05-03T12:25:10Z</time>
      </trkpt>
      <trkpt lat="47.03859" lon="5.41296">
        <ele>188.555786</ele>
        <time>2011-05-03T12:25:14Z</time>
      </trkpt>
      <trkpt lat="47.03856" lon="5.41306">
        <ele>187.11377</ele>
        <time>2011-05-03T12:25:17Z</time>
      </trkpt>
      <trkpt lat="47.03813" lon="5.41331">
        <ele>187.11377</ele>
        <time>2011-05-03T12:25:29Z</time>
      </trkpt>
      <trkpt lat="47.03768" lon="5.41324">
        <ele>187.59436</ele>
        <time>2011-05-03T12:25:38Z</time>
      </trkpt>
      <trkpt lat="47.03757" lon="5.4132">
        <ele>187.59436</ele>
        <time>2011-05-03T12:25:40Z</time>
      </trkpt>
      <trkpt lat="47.03746" lon="5.41314">
        <ele>187.59436</ele>
        <time>2011-05-03T12:25:42Z</time>
      </trkpt>
      <trkpt lat="47.03667" lon="5.41223">
        <ele>187.11377</ele>
        <time>2011-05-03T12:25:58Z</time>
      </trkpt>
      <trkpt lat="47.03611" lon="5.41151">
        <ele>187.59436</ele>
        <time>2011-05-03T12:26:10Z</time>
      </trkpt>
      <trkpt lat="47.03562" lon="5.41048">
        <ele>187.11377</ele>
        <time>2011-05-03T12:26:24Z</time>
      </trkpt>
      <trkpt lat="47.03555" lon="5.41023">
        <ele>187.11377</ele>
        <time>2011-05-03T12:26:28Z</time>
      </trkpt>
      <trkpt lat="47.03544" lon="5.41013">
        <ele>187.59436</ele>
        <time>2011-05-03T12:26:32Z</time>
      </trkpt>
      <trkpt lat="47.03536" lon="5.41013">
        <ele>187.11377</ele>
        <time>2011-05-03T12:26:34Z</time>
      </trkpt>
      <trkpt lat="47.03521" lon="5.41006">
        <ele>186.633179</ele>
        <time>2011-05-03T12:26:37Z</time>
      </trkpt>
      <trkpt lat="47.03451" lon="5.40917">
        <ele>187.59436</ele>
        <time>2011-05-03T12:26:52Z</time>
      </trkpt>
      <trkpt lat="47.03374" lon="5.40816">
        <ele>187.11377</ele>
        <time>2011-05-03T12:27:07Z</time>
      </trkpt>
      <trkpt lat="47.03348" lon="5.40786">
        <ele>187.11377</ele>
        <time>2011-05-03T12:27:12Z</time>
      </trkpt>
      <trkpt lat="47.03318" lon="5.40794">
        <ele>189.516968</ele>
        <time>2011-05-03T12:27:18Z</time>
      </trkpt>
      <trkpt lat="47.03311" lon="5.40807">
        <ele>189.036377</ele>
        <time>2011-05-03T12:27:20Z</time>
      </trkpt>
      <trkpt lat="47.03286" lon="5.40795">
        <ele>188.555786</ele>
        <time>2011-05-03T12:27:25Z</time>
      </trkpt>
      <trkpt lat="47.03239" lon="5.40726">
        <ele>191.920288</ele>
        <time>2011-05-03T12:27:36Z</time>
      </trkpt>
      <trkpt lat="47.03229" lon="5.40717">
        <ele>192.401123</ele>
        <time>2011-05-03T12:27:38Z</time>
      </trkpt>
      <trkpt lat="47.03189" lon="5.4071">
        <ele>193.843018</ele>
        <time>2011-05-03T12:27:45Z</time>
      </trkpt>
      <trkpt lat="47.03117" lon="5.40733">
        <ele>194.32373</ele>
        <time>2011-05-03T12:27:58Z</time>
      </trkpt>
      <trkpt lat="47.03106" lon="5.40741">
        <ele>193.843018</ele>
        <time>2011-05-03T12:28:00Z</time>
      </trkpt>
      <trkpt lat="47.03032" lon="5.40846">
        <ele>191.439575</ele>
        <time>2011-05-03T12:28:14Z</time>
      </trkpt>
      <trkpt lat="47.02945" lon="5.40976">
        <ele>189.516968</ele>
        <time>2011-05-03T12:28:32Z</time>
      </trkpt>
      <trkpt lat="47.02792" lon="5.41165">
        <ele>189.997681</ele>
        <time>2011-05-03T12:29:02Z</time>
      </trkpt>
      <trkpt lat="47.02655" lon="5.413">
        <ele>188.555786</ele>
        <time>2011-05-03T12:29:26Z</time>
      </trkpt>
      <trkpt lat="47.02596" lon="5.41355">
        <ele>188.555786</ele>
        <time>2011-05-03T12:29:36Z</time>
      </trkpt>
      <trkpt lat="47.0256" lon="5.41376">
        <ele>188.555786</ele>
        <time>2011-05-03T12:29:42Z</time>
      </trkpt>
      <trkpt lat="47.02534" lon="5.41375">
        <ele>188.555786</ele>
        <time>2011-05-03T12:29:46Z</time>
      </trkpt>
      <trkpt lat="47.02504" lon="5.41391">
        <ele>188.075073</ele>
        <time>2011-05-03T12:29:51Z</time>
      </trkpt>
      <trkpt lat="47.02422" lon="5.414">
        <ele>188.075073</ele>
        <time>2011-05-03T12:30:04Z</time>
      </trkpt>
      <trkpt lat="47.02261" lon="5.41412">
        <ele>188.555786</ele>
        <time>2011-05-03T12:30:29Z</time>
      </trkpt>
      <trkpt lat="47.02068" lon="5.41424">
        <ele>188.075073</ele>
        <time>2011-05-03T12:30:58Z</time>
      </trkpt>
      <trkpt lat="47.01993" lon="5.41425">
        <ele>188.075073</ele>
        <time>2011-05-03T12:31:09Z</time>
      </trkpt>
      <trkpt lat="47.01927" lon="5.41383">
        <ele>187.59436</ele>
        <time>2011-05-03T12:31:21Z</time>
      </trkpt>
      <trkpt lat="47.01923" lon="5.4136">
        <ele>187.59436</ele>
        <time>2011-05-03T12:31:29Z</time>
      </trkpt>
      <trkpt lat="47.01935" lon="5.41275">
        <ele>188.555786</ele>
        <time>2011-05-03T12:31:45Z</time>
      </trkpt>
      <trkpt lat="47.01942" lon="5.41132">
        <ele>188.075073</ele>
        <time>2011-05-03T12:32:02Z</time>
      </trkpt>
      <trkpt lat="47.01974" lon="5.40963">
        <ele>188.555786</ele>
        <time>2011-05-03T12:32:20Z</time>
      </trkpt>
      <trkpt lat="47.01979" lon="5.40746">
        <ele>188.075073</ele>
        <time>2011-05-03T12:32:43Z</time>
      </trkpt>
      <trkpt lat="47.01941" lon="5.4063">
        <ele>187.11377</ele>
        <time>2011-05-03T12:32:56Z</time>
      </trkpt>
      <trkpt lat="47.01851" lon="5.40434">
        <ele>187.11377</ele>
        <time>2011-05-03T12:33:20Z</time>
      </trkpt>
      <trkpt lat="47.01813" lon="5.40393">
        <ele>187.59436</ele>
        <time>2011-05-03T12:33:27Z</time>
      </trkpt>
      <trkpt lat="47.01707" lon="5.40369">
        <ele>187.59436</ele>
        <time>2011-05-03T12:33:43Z</time>
      </trkpt>
      <trkpt lat="47.0159" lon="5.40351">
        <ele>187.11377</ele>
        <time>2011-05-03T12:34:01Z</time>
      </trkpt>
      <trkpt lat="47.0156" lon="5.40329">
        <ele>187.59436</ele>
        <time>2011-05-03T12:34:06Z</time>
      </trkpt>
      <trkpt lat="47.01489" lon="5.40195">
        <ele>187.11377</ele>
        <time>2011-05-03T12:34:23Z</time>
      </trkpt>
      <trkpt lat="47.01395" lon="5.39884">
        <ele>186.633179</ele>
        <time>2011-05-03T12:34:56Z</time>
      </trkpt>
      <trkpt lat="47.01324" lon="5.39662">
        <ele>186.152466</ele>
        <time>2011-05-03T12:35:19Z</time>
      </trkpt>
      <trkpt lat="47.01246" lon="5.39588">
        <ele>185.671753</ele>
        <time>2011-05-03T12:35:32Z</time>
      </trkpt>
      <trkpt lat="47.01137" lon="5.39461">
        <ele>185.671753</ele>
        <time>2011-05-03T12:35:51Z</time>
      </trkpt>
      <trkpt lat="47.01058" lon="5.39269">
        <ele>185.671753</ele>
        <time>2011-05-03T12:36:12Z</time>
      </trkpt>
      <trkpt lat="47.01042" lon="5.3912">
        <ele>185.671753</ele>
        <time>2011-05-03T12:36:26Z</time>
      </trkpt>
      <trkpt lat="47.01056" lon="5.38946">
        <ele>185.671753</ele>
        <time>2011-05-03T12:36:43Z</time>
      </trkpt>
      <trkpt lat="47.01058" lon="5.38937">
        <ele>185.671753</ele>
        <time>2011-05-03T12:36:44Z</time>
      </trkpt>
      <trkpt lat="47.01068" lon="5.3889">
        <ele>185.191162</ele>
        <time>2011-05-03T12:36:50Z</time>
      </trkpt>
      <trkpt lat="47.0106" lon="5.38868">
        <ele>184.229858</ele>
        <time>2011-05-03T12:36:55Z</time>
      </trkpt>
      <trkpt lat="47.01051" lon="5.38864">
        <ele>184.229858</ele>
        <time>2011-05-03T12:36:57Z</time>
      </trkpt>
      <trkpt lat="47.01026" lon="5.38841">
        <ele>183.749023</ele>
        <time>2011-05-03T12:37:03Z</time>
      </trkpt>
      <trkpt lat="47.00954" lon="5.38833">
        <ele>185.191162</ele>
        <time>2011-05-03T12:37:15Z</time>
      </trkpt>
      <trkpt lat="47.00922" lon="5.38809">
        <ele>185.191162</ele>
        <time>2011-05-03T12:37:21Z</time>
      </trkpt>
      <trkpt lat="47.00922" lon="5.38799">
        <ele>185.191162</ele>
        <time>2011-05-03T12:37:22Z</time>
      </trkpt>
      <trkpt lat="47.00923" lon="5.38781">
        <ele>185.671753</ele>
        <time>2011-05-03T12:37:24Z</time>
      </trkpt>
      <trkpt lat="47.00901" lon="5.3877">
        <ele>184.710571</ele>
        <time>2011-05-03T12:37:29Z</time>
      </trkpt>
      <trkpt lat="47.00857" lon="5.38783">
        <ele>184.710571</ele>
        <time>2011-05-03T12:37:37Z</time>
      </trkpt>
      <trkpt lat="47.00824" lon="5.38791">
        <ele>184.229858</ele>
        <time>2011-05-03T12:37:43Z</time>
      </trkpt>
      <trkpt lat="47.00814" lon="5.38796">
        <ele>184.229858</ele>
        <time>2011-05-03T12:37:45Z</time>
      </trkpt>
      <trkpt lat="47.008" lon="5.38811">
        <ele>185.191162</ele>
        <time>2011-05-03T12:37:49Z</time>
      </trkpt>
      <trkpt lat="47.00786" lon="5.38849">
        <ele>184.710571</ele>
        <time>2011-05-03T12:37:55Z</time>
      </trkpt>
      <trkpt lat="47.00717" lon="5.38964">
        <ele>184.710571</ele>
        <time>2011-05-03T12:38:14Z</time>
      </trkpt>
      <trkpt lat="47.00607" lon="5.39066">
        <ele>186.633179</ele>
        <time>2011-05-03T12:38:37Z</time>
      </trkpt>
      <trkpt lat="47.0057" lon="5.39096">
        <ele>185.671753</ele>
        <time>2011-05-03T12:38:44Z</time>
      </trkpt>
      <trkpt lat="47.00529" lon="5.39104">
        <ele>184.710571</ele>
        <time>2011-05-03T12:38:50Z</time>
      </trkpt>
      <trkpt lat="47.0039" lon="5.39057">
        <ele>185.191162</ele>
        <time>2011-05-03T12:39:12Z</time>
      </trkpt>
      <trkpt lat="47.00384" lon="5.39056">
        <ele>185.191162</ele>
        <time>2011-05-03T12:39:13Z</time>
      </trkpt>
      <trkpt lat="47.00268" lon="5.39019">
        <ele>187.59436</ele>
        <time>2011-05-03T12:39:33Z</time>
      </trkpt>
      <trkpt lat="47.00195" lon="5.38997">
        <ele>187.11377</ele>
        <time>2011-05-03T12:39:45Z</time>
      </trkpt>
      <trkpt lat="47.00179" lon="5.38991">
        <ele>187.59436</ele>
        <time>2011-05-03T12:39:48Z</time>
      </trkpt>
      <trkpt lat="47.00144" lon="5.38984">
        <ele>187.59436</ele>
        <time>2011-05-03T12:39:54Z</time>
      </trkpt>
      <trkpt lat="47.001" lon="5.38969">
        <ele>187.11377</ele>
        <time>2011-05-03T12:40:00Z</time>
      </trkpt>
      <trkpt lat="47.00046" lon="5.39007">
        <ele>185.671753</ele>
        <time>2011-05-03T12:40:08Z</time>
      </trkpt>
      <trkpt lat="47.00037" lon="5.39051">
        <ele>185.671753</ele>
        <time>2011-05-03T12:40:12Z</time>
      </trkpt>
      <trkpt lat="47.00015" lon="5.39176">
        <ele>184.710571</ele>
        <time>2011-05-03T12:40:26Z</time>
      </trkpt>
      <trkpt lat="46.99987" lon="5.39249">
        <ele>185.191162</ele>
        <time>2011-05-03T12:40:35Z</time>
      </trkpt>
      <trkpt lat="46.99974" lon="5.39416">
        <ele>186.152466</ele>
        <time>2011-05-03T12:40:54Z</time>
      </trkpt>
      <trkpt lat="46.99952" lon="5.3968">
        <ele>186.152466</ele>
        <time>2011-05-03T12:41:23Z</time>
      </trkpt>
      <trkpt lat="46.9995" lon="5.39811">
        <ele>186.152466</ele>
        <time>2011-05-03T12:41:38Z</time>
      </trkpt>
      <trkpt lat="46.99956" lon="5.39832">
        <ele>186.633179</ele>
        <time>2011-05-03T12:41:41Z</time>
      </trkpt>
      <trkpt lat="47.0003" lon="5.39985">
        <ele>186.633179</ele>
        <time>2011-05-03T12:42:04Z</time>
      </trkpt>
      <trkpt lat="47.00048" lon="5.40088">
        <ele>186.152466</ele>
        <time>2011-05-03T12:42:17Z</time>
      </trkpt>
      <trkpt lat="47.00047" lon="5.40103">
        <ele>185.191162</ele>
        <time>2011-05-03T12:42:19Z</time>
      </trkpt>
      <trkpt lat="47.00044" lon="5.40117">
        <ele>185.191162</ele>
        <time>2011-05-03T12:42:21Z</time>
      </trkpt>
      <trkpt lat="47.00041" lon="5.40129">
        <ele>185.191162</ele>
        <time>2011-05-03T12:42:23Z</time>
      </trkpt>
      <trkpt lat="47.0003" lon="5.40149">
        <ele>185.191162</ele>
        <time>2011-05-03T12:42:27Z</time>
      </trkpt>
      <trkpt lat="46.99955" lon="5.40187">
        <ele>184.710571</ele>
        <time>2011-05-03T12:42:43Z</time>
      </trkpt>
      <trkpt lat="46.9988" lon="5.40261">
        <ele>185.191162</ele>
        <time>2011-05-03T12:42:59Z</time>
      </trkpt>
      <trkpt lat="46.99808" lon="5.40297">
        <ele>185.191162</ele>
        <time>2011-05-03T12:43:12Z</time>
      </trkpt>
      <trkpt lat="46.99733" lon="5.4034">
        <ele>185.191162</ele>
        <time>2011-05-03T12:43:26Z</time>
      </trkpt>
      <trkpt lat="46.99661" lon="5.40444">
        <ele>186.152466</ele>
        <time>2011-05-03T12:43:43Z</time>
      </trkpt>
      <trkpt lat="46.99579" lon="5.40545">
        <ele>185.191162</ele>
        <time>2011-05-03T12:44:00Z</time>
      </trkpt>
      <trkpt lat="46.99456" lon="5.40622">
        <ele>184.710571</ele>
        <time>2011-05-03T12:44:20Z</time>
      </trkpt>
      <trkpt lat="46.9935" lon="5.40662">
        <ele>185.191162</ele>
        <time>2011-05-03T12:44:37Z</time>
      </trkpt>
      <trkpt lat="46.99239" lon="5.40678">
        <ele>184.710571</ele>
        <time>2011-05-03T12:44:55Z</time>
      </trkpt>
      <trkpt lat="46.99133" lon="5.40682">
        <ele>184.710571</ele>
        <time>2011-05-03T12:45:12Z</time>
      </trkpt>
      <trkpt lat="46.99027" lon="5.40638">
        <ele>184.229858</ele>
        <time>2011-05-03T12:45:29Z</time>
      </trkpt>
      <trkpt lat="46.98902" lon="5.40562">
        <ele>184.229858</ele>
        <time>2011-05-03T12:45:50Z</time>
      </trkpt>
      <trkpt lat="46.98816" lon="5.40556">
        <ele>183.749023</ele>
        <time>2011-05-03T12:46:03Z</time>
      </trkpt>
      <trkpt lat="46.98698" lon="5.40571">
        <ele>184.710571</ele>
        <time>2011-05-03T12:46:21Z</time>
      </trkpt>
      <trkpt lat="46.98528" lon="5.40595">
        <ele>183.268433</ele>
        <time>2011-05-03T12:46:47Z</time>
      </trkpt>
      <trkpt lat="46.98464" lon="5.40619">
        <ele>184.229858</ele>
        <time>2011-05-03T12:46:56Z</time>
      </trkpt>
      <trkpt lat="46.9843" lon="5.40654">
        <ele>184.229858</ele>
        <time>2011-05-03T12:47:02Z</time>
      </trkpt>
      <trkpt lat="46.98328" lon="5.40803">
        <ele>184.710571</ele>
        <time>2011-05-03T12:47:24Z</time>
      </trkpt>
      <trkpt lat="46.98323" lon="5.40809">
        <ele>184.229858</ele>
        <time>2011-05-03T12:47:25Z</time>
      </trkpt>
      <trkpt lat="46.98288" lon="5.40823">
        <ele>183.268433</ele>
        <time>2011-05-03T12:47:31Z</time>
      </trkpt>
      <trkpt lat="46.9818" lon="5.40777">
        <ele>183.268433</ele>
        <time>2011-05-03T12:47:49Z</time>
      </trkpt>
      <trkpt lat="46.9805" lon="5.40743">
        <ele>183.268433</ele>
        <time>2011-05-03T12:48:08Z</time>
      </trkpt>
      <trkpt lat="46.97913" lon="5.4072">
        <ele>183.749023</ele>
        <time>2011-05-03T12:48:28Z</time>
      </trkpt>
      <trkpt lat="46.9783" lon="5.40764">
        <ele>184.229858</ele>
        <time>2011-05-03T12:48:41Z</time>
      </trkpt>
      <trkpt lat="46.97749" lon="5.40749">
        <ele>184.229858</ele>
        <time>2011-05-03T12:48:53Z</time>
      </trkpt>
      <trkpt lat="46.97681" lon="5.40734">
        <ele>184.710571</ele>
        <time>2011-05-03T12:49:06Z</time>
      </trkpt>
      <trkpt lat="46.97509" lon="5.40701">
        <ele>182.787842</ele>
        <time>2011-05-03T12:49:33Z</time>
      </trkpt>
      <trkpt lat="46.9728" lon="5.40657">
        <ele>182.787842</ele>
        <time>2011-05-03T12:50:08Z</time>
      </trkpt>
      <trkpt lat="46.97108" lon="5.40634">
        <ele>183.268433</ele>
        <time>2011-05-03T12:50:34Z</time>
      </trkpt>
      <trkpt lat="46.96956" lon="5.40635">
        <ele>182.307129</ele>
        <time>2011-05-03T12:50:56Z</time>
      </trkpt>
      <trkpt lat="46.96918" lon="5.40589">
        <ele>182.787842</ele>
        <time>2011-05-03T12:51:04Z</time>
      </trkpt>
      <trkpt lat="46.96914" lon="5.40574">
        <ele>182.307129</ele>
        <time>2011-05-03T12:51:06Z</time>
      </trkpt>
      <trkpt lat="46.96892" lon="5.40575">
        <ele>182.307129</ele>
        <time>2011-05-03T12:51:11Z</time>
      </trkpt>
      <trkpt lat="46.96855" lon="5.40581">
        <ele>182.787842</ele>
        <time>2011-05-03T12:51:19Z</time>
      </trkpt>
      <trkpt lat="46.96829" lon="5.40615">
        <ele>183.749023</ele>
        <time>2011-05-03T12:51:27Z</time>
      </trkpt>
      <trkpt lat="46.96822" lon="5.40618">
        <ele>183.268433</ele>
        <time>2011-05-03T12:51:29Z</time>
      </trkpt>
      <trkpt lat="46.96778" lon="5.40612">
        <ele>183.268433</ele>
        <time>2011-05-03T12:51:42Z</time>
      </trkpt>
      <trkpt lat="46.96771" lon="5.4061">
        <ele>183.749023</ele>
        <time>2011-05-03T12:51:44Z</time>
      </trkpt>
      <trkpt lat="46.96729" lon="5.40606">
        <ele>183.268433</ele>
        <time>2011-05-03T12:51:52Z</time>
      </trkpt>
      <trkpt lat="46.96706" lon="5.4063">
        <ele>183.749023</ele>
        <time>2011-05-03T12:51:57Z</time>
      </trkpt>
      <trkpt lat="46.96664" lon="5.40705">
        <ele>184.229858</ele>
        <time>2011-05-03T12:52:09Z</time>
      </trkpt>
      <trkpt lat="46.96645" lon="5.40726">
        <ele>184.229858</ele>
        <time>2011-05-03T12:52:13Z</time>
      </trkpt>
      <trkpt lat="46.96608" lon="5.40738">
        <ele>183.268433</ele>
        <time>2011-05-03T12:52:19Z</time>
      </trkpt>
      <trkpt lat="46.96489" lon="5.40713">
        <ele>182.307129</ele>
        <time>2011-05-03T12:52:37Z</time>
      </trkpt>
      <trkpt lat="46.96323" lon="5.40679">
        <ele>182.787842</ele>
        <time>2011-05-03T12:53:02Z</time>
      </trkpt>
      <trkpt lat="46.96107" lon="5.40635">
        <ele>183.268433</ele>
        <time>2011-05-03T12:53:34Z</time>
      </trkpt>
      <trkpt lat="46.95937" lon="5.406">
        <ele>183.268433</ele>
        <time>2011-05-03T12:53:59Z</time>
      </trkpt>
      <trkpt lat="46.95902" lon="5.40586">
        <ele>182.787842</ele>
        <time>2011-05-03T12:54:04Z</time>
      </trkpt>
      <trkpt lat="46.95875" lon="5.40592">
        <ele>182.787842</ele>
        <time>2011-05-03T12:54:08Z</time>
      </trkpt>
      <trkpt lat="46.95864" lon="5.40601">
        <ele>182.787842</ele>
        <time>2011-05-03T12:54:10Z</time>
      </trkpt>
      <trkpt lat="46.95761" lon="5.40647">
        <ele>182.307129</ele>
        <time>2011-05-03T12:54:27Z</time>
      </trkpt>
      <trkpt lat="46.95598" lon="5.40727">
        <ele>183.268433</ele>
        <time>2011-05-03T12:54:54Z</time>
      </trkpt>
      <trkpt lat="46.95474" lon="5.40817">
        <ele>183.268433</ele>
        <time>2011-05-03T12:55:15Z</time>
      </trkpt>
      <trkpt lat="46.95282" lon="5.40953">
        <ele>184.710571</ele>
        <time>2011-05-03T12:55:48Z</time>
      </trkpt>
      <trkpt lat="46.9525" lon="5.40952">
        <ele>184.229858</ele>
        <time>2011-05-03T12:55:53Z</time>
      </trkpt>
      <trkpt lat="46.95134" lon="5.40904">
        <ele>183.749023</ele>
        <time>2011-05-03T12:56:14Z</time>
      </trkpt>
      <trkpt lat="46.95043" lon="5.40833">
        <ele>184.710571</ele>
        <time>2011-05-03T12:56:31Z</time>
      </trkpt>
      <trkpt lat="46.94961" lon="5.40807">
        <ele>184.710571</ele>
        <time>2011-05-03T12:56:45Z</time>
      </trkpt>
      <trkpt lat="46.94955" lon="5.40804">
        <ele>184.710571</ele>
        <time>2011-05-03T12:56:46Z</time>
      </trkpt>
      <trkpt lat="46.94863" lon="5.40733">
        <ele>183.268433</ele>
        <time>2011-05-03T12:57:01Z</time>
      </trkpt>
      <trkpt lat="46.94856" lon="5.40729">
        <ele>183.268433</ele>
        <time>2011-05-03T12:57:02Z</time>
      </trkpt>
      <trkpt lat="46.94767" lon="5.40688">
        <ele>182.307129</ele>
        <time>2011-05-03T12:57:15Z</time>
      </trkpt>
      <trkpt lat="46.9469" lon="5.40606">
        <ele>182.787842</ele>
        <time>2011-05-03T12:57:30Z</time>
      </trkpt>
      <trkpt lat="46.94667" lon="5.40529">
        <ele>182.787842</ele>
        <time>2011-05-03T12:57:41Z</time>
      </trkpt>
      <trkpt lat="46.94662" lon="5.40497">
        <ele>182.787842</ele>
        <time>2011-05-03T12:57:45Z</time>
      </trkpt>
      <trkpt lat="46.94653" lon="5.40468">
        <ele>181.826416</ele>
        <time>2011-05-03T12:57:49Z</time>
      </trkpt>
      <trkpt lat="46.946" lon="5.40359">
        <ele>181.826416</ele>
        <time>2011-05-03T12:58:07Z</time>
      </trkpt>
      <trkpt lat="46.94592" lon="5.40337">
        <ele>181.826416</ele>
        <time>2011-05-03T12:58:11Z</time>
      </trkpt>
      <trkpt lat="46.94561" lon="5.40279">
        <ele>181.826416</ele>
        <time>2011-05-03T12:58:25Z</time>
      </trkpt>
      <trkpt lat="46.94512" lon="5.40218">
        <ele>181.826416</ele>
        <time>2011-05-03T12:58:41Z</time>
      </trkpt>
      <trkpt lat="46.94432" lon="5.40124">
        <ele>180.384521</ele>
        <time>2011-05-03T12:59:03Z</time>
      </trkpt>
      <trkpt lat="46.94426" lon="5.40113">
        <ele>180.384521</ele>
        <time>2011-05-03T12:59:05Z</time>
      </trkpt>
      <trkpt lat="46.94415" lon="5.4008">
        <ele>181.345825</ele>
        <time>2011-05-03T12:59:10Z</time>
      </trkpt>
      <trkpt lat="46.94371" lon="5.39958">
        <ele>182.787842</ele>
        <time>2011-05-03T12:59:29Z</time>
      </trkpt>
      <trkpt lat="46.94328" lon="5.39877">
        <ele>183.268433</ele>
        <time>2011-05-03T12:59:43Z</time>
      </trkpt>
      <trkpt lat="46.94308" lon="5.39838">
        <ele>182.787842</ele>
        <time>2011-05-03T12:59:49Z</time>
      </trkpt>
      <trkpt lat="46.94222" lon="5.39772">
        <ele>182.787842</ele>
        <time>2011-05-03T13:00:06Z</time>
      </trkpt>
      <trkpt lat="46.9417" lon="5.39717">
        <ele>182.787842</ele>
        <time>2011-05-03T13:00:17Z</time>
      </trkpt>
      <trkpt lat="46.9412" lon="5.39582">
        <ele>182.787842</ele>
        <time>2011-05-03T13:00:34Z</time>
      </trkpt>
      <trkpt lat="46.94071" lon="5.39386">
        <ele>184.710571</ele>
        <time>2011-05-03T13:00:58Z</time>
      </trkpt>
      <trkpt lat="46.94039" lon="5.39292">
        <ele>183.268433</ele>
        <time>2011-05-03T13:01:10Z</time>
      </trkpt>
      <trkpt lat="46.9395" lon="5.39193">
        <ele>182.787842</ele>
        <time>2011-05-03T13:01:28Z</time>
      </trkpt>
      <trkpt lat="46.93901" lon="5.39084">
        <ele>184.229858</ele>
        <time>2011-05-03T13:01:43Z</time>
      </trkpt>
      <trkpt lat="46.93872" lon="5.38911">
        <ele>183.749023</ele>
        <time>2011-05-03T13:02:02Z</time>
      </trkpt>
      <trkpt lat="46.93821" lon="5.3882">
        <ele>183.268433</ele>
        <time>2011-05-03T13:02:15Z</time>
      </trkpt>
      <trkpt lat="46.93716" lon="5.38686">
        <ele>184.710571</ele>
        <time>2011-05-03T13:02:38Z</time>
      </trkpt>
      <trkpt lat="46.93679" lon="5.38643">
        <ele>188.075073</ele>
        <time>2011-05-03T13:02:47Z</time>
      </trkpt>
      <trkpt lat="46.93638" lon="5.38605">
        <ele>190.958984</ele>
        <time>2011-05-03T13:02:57Z</time>
      </trkpt>
      <trkpt lat="46.93589" lon="5.38567">
        <ele>193.843018</ele>
        <time>2011-05-03T13:03:08Z</time>
      </trkpt>
      <trkpt lat="46.93534" lon="5.38505">
        <ele>197.688232</ele>
        <time>2011-05-03T13:03:21Z</time>
      </trkpt>
      <trkpt lat="46.93496" lon="5.38449">
        <ele>201.052856</ele>
        <time>2011-05-03T13:03:31Z</time>
      </trkpt>
      <trkpt lat="46.93453" lon="5.38397">
        <ele>204.41748</ele>
        <time>2011-05-03T13:03:41Z</time>
      </trkpt>
      <trkpt lat="46.93398" lon="5.38325">
        <ele>205.378784</ele>
        <time>2011-05-03T13:03:56Z</time>
      </trkpt>
      <trkpt lat="46.9335" lon="5.38261">
        <ele>204.898071</ele>
        <time>2011-05-03T13:04:13Z</time>
      </trkpt>
      <trkpt lat="46.93335" lon="5.38239">
        <ele>204.41748</ele>
        <time>2011-05-03T13:04:18Z</time>
      </trkpt>
      <trkpt lat="46.93269" lon="5.38129">
        <ele>203.93689</ele>
        <time>2011-05-03T13:04:41Z</time>
      </trkpt>
      <trkpt lat="46.93221" lon="5.38037">
        <ele>203.456177</ele>
        <time>2011-05-03T13:05:02Z</time>
      </trkpt>
      <trkpt lat="46.93207" lon="5.38011">
        <ele>203.456177</ele>
        <time>2011-05-03T13:05:08Z</time>
      </trkpt>
      <trkpt lat="46.93193" lon="5.37997">
        <ele>203.456177</ele>
        <time>2011-05-03T13:05:12Z</time>
      </trkpt>
      <trkpt lat="46.93159" lon="5.37978">
        <ele>202.975464</ele>
        <time>2011-05-03T13:05:20Z</time>
      </trkpt>
      <trkpt lat="46.93089" lon="5.37952">
        <ele>202.975464</ele>
        <time>2011-05-03T13:05:37Z</time>
      </trkpt>
      <trkpt lat="46.9303" lon="5.37945">
        <ele>204.41748</ele>
        <time>2011-05-03T13:05:52Z</time>
      </trkpt>
      <trkpt lat="46.92961" lon="5.37938">
        <ele>205.859497</ele>
        <time>2011-05-03T13:06:08Z</time>
      </trkpt>
      <trkpt lat="46.92849" lon="5.37892">
        <ele>206.340088</ele>
        <time>2011-05-03T13:06:29Z</time>
      </trkpt>
      <trkpt lat="46.92796" lon="5.37862">
        <ele>207.301392</ele>
        <time>2011-05-03T13:06:39Z</time>
      </trkpt>
      <trkpt lat="46.92779" lon="5.37856">
        <ele>207.301392</ele>
        <time>2011-05-03T13:06:42Z</time>
      </trkpt>
      <trkpt lat="46.92684" lon="5.3787">
        <ele>207.301392</ele>
        <time>2011-05-03T13:06:59Z</time>
      </trkpt>
      <trkpt lat="46.92547" lon="5.37895">
        <ele>207.782104</ele>
        <time>2011-05-03T13:07:22Z</time>
      </trkpt>
      <trkpt lat="46.92445" lon="5.37917">
        <ele>208.262817</ele>
        <time>2011-05-03T13:07:39Z</time>
      </trkpt>
      <trkpt lat="46.92276" lon="5.37924">
        <ele>209.224121</ele>
        <time>2011-05-03T13:08:06Z</time>
      </trkpt>
      <trkpt lat="46.92125" lon="5.37929">
        <ele>209.224121</ele>
        <time>2011-05-03T13:08:29Z</time>
      </trkpt>
      <trkpt lat="46.91938" lon="5.3793">
        <ele>209.704834</ele>
        <time>2011-05-03T13:08:56Z</time>
      </trkpt>
      <trkpt lat="46.91775" lon="5.37948">
        <ele>208.743408</ele>
        <time>2011-05-03T13:09:18Z</time>
      </trkpt>
      <trkpt lat="46.91614" lon="5.37975">
        <ele>209.224121</ele>
        <time>2011-05-03T13:09:39Z</time>
      </trkpt>
      <trkpt lat="46.91464" lon="5.38001">
        <ele>209.224121</ele>
        <time>2011-05-03T13:10:00Z</time>
      </trkpt>
      <trkpt lat="46.91341" lon="5.38021">
        <ele>208.743408</ele>
        <time>2011-05-03T13:10:18Z</time>
      </trkpt>
      <trkpt lat="46.91199" lon="5.38045">
        <ele>206.820679</ele>
        <time>2011-05-03T13:10:37Z</time>
      </trkpt>
      <trkpt lat="46.91108" lon="5.38062">
        <ele>204.898071</ele>
        <time>2011-05-03T13:10:51Z</time>
      </trkpt>
      <trkpt lat="46.91091" lon="5.38069">
        <ele>204.41748</ele>
        <time>2011-05-03T13:10:58Z</time>
      </trkpt>
      <trkpt lat="46.91047" lon="5.38145">
        <ele>204.898071</ele>
        <time>2011-05-03T13:11:13Z</time>
      </trkpt>
      <trkpt lat="46.90993" lon="5.3824">
        <ele>206.340088</ele>
        <time>2011-05-03T13:11:27Z</time>
      </trkpt>
      <trkpt lat="46.90902" lon="5.38398">
        <ele>206.820679</ele>
        <time>2011-05-03T13:11:50Z</time>
      </trkpt>
      <trkpt lat="46.90853" lon="5.38546">
        <ele>206.820679</ele>
        <time>2011-05-03T13:12:07Z</time>
      </trkpt>
      <trkpt lat="46.90802" lon="5.3868">
        <ele>204.898071</ele>
        <time>2011-05-03T13:12:20Z</time>
      </trkpt>
      <trkpt lat="46.90772" lon="5.38772">
        <ele>206.340088</ele>
        <time>2011-05-03T13:12:31Z</time>
      </trkpt>
      <trkpt lat="46.90734" lon="5.38892">
        <ele>208.262817</ele>
        <time>2011-05-03T13:12:48Z</time>
      </trkpt>
      <trkpt lat="46.90731" lon="5.38962">
        <ele>208.262817</ele>
        <time>2011-05-03T13:13:00Z</time>
      </trkpt>
      <trkpt lat="46.9071" lon="5.38988">
        <ele>207.301392</ele>
        <time>2011-05-03T13:13:07Z</time>
      </trkpt>
      <trkpt lat="46.906" lon="5.38957">
        <ele>207.782104</ele>
        <time>2011-05-03T13:13:29Z</time>
      </trkpt>
      <trkpt lat="46.90467" lon="5.38909">
        <ele>208.262817</ele>
        <time>2011-05-03T13:13:52Z</time>
      </trkpt>
      <trkpt lat="46.90364" lon="5.38845">
        <ele>206.820679</ele>
        <time>2011-05-03T13:14:10Z</time>
      </trkpt>
      <trkpt lat="46.90305" lon="5.38813">
        <ele>206.820679</ele>
        <time>2011-05-03T13:14:20Z</time>
      </trkpt>
      <trkpt lat="46.90287" lon="5.38792">
        <ele>206.820679</ele>
        <time>2011-05-03T13:14:24Z</time>
      </trkpt>
      <trkpt lat="46.90227" lon="5.38695">
        <ele>206.820679</ele>
        <time>2011-05-03T13:14:39Z</time>
      </trkpt>
      <trkpt lat="46.90169" lon="5.38601">
        <ele>206.820679</ele>
        <time>2011-05-03T13:14:53Z</time>
      </trkpt>
      <trkpt lat="46.90142" lon="5.3858">
        <ele>205.859497</ele>
        <time>2011-05-03T13:14:58Z</time>
      </trkpt>
      <trkpt lat="46.90001" lon="5.38525">
        <ele>206.340088</ele>
        <time>2011-05-03T13:15:22Z</time>
      </trkpt>
      <trkpt lat="46.89922" lon="5.38455">
        <ele>206.340088</ele>
        <time>2011-05-03T13:15:37Z</time>
      </trkpt>
      <trkpt lat="46.89758" lon="5.38304">
        <ele>206.820679</ele>
        <time>2011-05-03T13:16:09Z</time>
      </trkpt>
      <trkpt lat="46.89718" lon="5.38271">
        <ele>206.340088</ele>
        <time>2011-05-03T13:16:17Z</time>
      </trkpt>
      <trkpt lat="46.89684" lon="5.38264">
        <ele>206.340088</ele>
        <time>2011-05-03T13:16:23Z</time>
      </trkpt>
      <trkpt lat="46.89492" lon="5.38341">
        <ele>207.301392</ele>
        <time>2011-05-03T13:16:55Z</time>
      </trkpt>
      <trkpt lat="46.8947" lon="5.38351">
        <ele>207.301392</ele>
        <time>2011-05-03T13:16:59Z</time>
      </trkpt>
      <trkpt lat="46.89436" lon="5.38327">
        <ele>206.340088</ele>
        <time>2011-05-03T13:17:06Z</time>
      </trkpt>
      <trkpt lat="46.89386" lon="5.38169">
        <ele>205.859497</ele>
        <time>2011-05-03T13:17:27Z</time>
      </trkpt>
      <trkpt lat="46.89336" lon="5.37983">
        <ele>206.340088</ele>
        <time>2011-05-03T13:17:49Z</time>
      </trkpt>
      <trkpt lat="46.89306" lon="5.37824">
        <ele>206.820679</ele>
        <time>2011-05-03T13:18:07Z</time>
      </trkpt>
      <trkpt lat="46.8928" lon="5.37673">
        <ele>206.340088</ele>
        <time>2011-05-03T13:18:24Z</time>
      </trkpt>
      <trkpt lat="46.89248" lon="5.37464">
        <ele>205.859497</ele>
        <time>2011-05-03T13:18:48Z</time>
      </trkpt>
      <trkpt lat="46.89248" lon="5.37317">
        <ele>204.41748</ele>
        <time>2011-05-03T13:19:03Z</time>
      </trkpt>
      <trkpt lat="46.89279" lon="5.37174">
        <ele>206.820679</ele>
        <time>2011-05-03T13:19:21Z</time>
      </trkpt>
      <trkpt lat="46.89289" lon="5.37145">
        <ele>206.820679</ele>
        <time>2011-05-03T13:19:25Z</time>
      </trkpt>
      <trkpt lat="46.89274" lon="5.37102">
        <ele>206.820679</ele>
        <time>2011-05-03T13:19:32Z</time>
      </trkpt>
      <trkpt lat="46.89227" lon="5.37068">
        <ele>204.898071</ele>
        <time>2011-05-03T13:19:41Z</time>
      </trkpt>
      <trkpt lat="46.89158" lon="5.37008">
        <ele>202.014282</ele>
        <time>2011-05-03T13:19:52Z</time>
      </trkpt>
      <trkpt lat="46.8911" lon="5.36963">
        <ele>199.130127</ele>
        <time>2011-05-03T13:19:58Z</time>
      </trkpt>
      <trkpt lat="46.89086" lon="5.36941">
        <ele>198.649536</ele>
        <time>2011-05-03T13:20:01Z</time>
      </trkpt>
      <trkpt lat="46.89047" lon="5.36924">
        <ele>198.168945</ele>
        <time>2011-05-03T13:20:06Z</time>
      </trkpt>
      <trkpt lat="46.89017" lon="5.36883">
        <ele>200.091675</ele>
        <time>2011-05-03T13:20:13Z</time>
      </trkpt>
      <trkpt lat="46.89008" lon="5.36836">
        <ele>202.975464</ele>
        <time>2011-05-03T13:20:20Z</time>
      </trkpt>
      <trkpt lat="46.89001" lon="5.36782">
        <ele>204.898071</ele>
        <time>2011-05-03T13:20:28Z</time>
      </trkpt>
      <trkpt lat="46.88966" lon="5.36728">
        <ele>204.898071</ele>
        <time>2011-05-03T13:20:38Z</time>
      </trkpt>
      <trkpt lat="46.8895" lon="5.36722">
        <ele>204.41748</ele>
        <time>2011-05-03T13:20:41Z</time>
      </trkpt>
      <trkpt lat="46.8887" lon="5.36703">
        <ele>205.859497</ele>
        <time>2011-05-03T13:20:56Z</time>
      </trkpt>
      <trkpt lat="46.88849" lon="5.36695">
        <ele>205.859497</ele>
        <time>2011-05-03T13:21:00Z</time>
      </trkpt>
      <trkpt lat="46.88833" lon="5.36657">
        <ele>206.340088</ele>
        <time>2011-05-03T13:21:06Z</time>
      </trkpt>
      <trkpt lat="46.88832" lon="5.36531">
        <ele>204.898071</ele>
        <time>2011-05-03T13:21:20Z</time>
      </trkpt>
      <trkpt lat="46.88835" lon="5.36495">
        <ele>205.378784</ele>
        <time>2011-05-03T13:21:24Z</time>
      </trkpt>
      <trkpt lat="46.88867" lon="5.36338">
        <ele>206.820679</ele>
        <time>2011-05-03T13:21:44Z</time>
      </trkpt>
      <trkpt lat="46.88885" lon="5.36311">
        <ele>206.340088</ele>
        <time>2011-05-03T13:21:49Z</time>
      </trkpt>
      <trkpt lat="46.88895" lon="5.36303">
        <ele>205.859497</ele>
        <time>2011-05-03T13:21:51Z</time>
      </trkpt>
      <trkpt lat="46.88901" lon="5.36271">
        <ele>205.378784</ele>
        <time>2011-05-03T13:21:57Z</time>
      </trkpt>
      <trkpt lat="46.88858" lon="5.36176">
        <ele>205.378784</ele>
        <time>2011-05-03T13:22:15Z</time>
      </trkpt>
      <trkpt lat="46.88818" lon="5.36055">
        <ele>205.378784</ele>
        <time>2011-05-03T13:22:34Z</time>
      </trkpt>
      <trkpt lat="46.88801" lon="5.35998">
        <ele>204.898071</ele>
        <time>2011-05-03T13:22:42Z</time>
      </trkpt>
      <trkpt lat="46.88801" lon="5.35952">
        <ele>206.340088</ele>
        <time>2011-05-03T13:22:48Z</time>
      </trkpt>
      <trkpt lat="46.88818" lon="5.35845">
        <ele>204.41748</ele>
        <time>2011-05-03T13:23:05Z</time>
      </trkpt>
      <trkpt lat="46.88819" lon="5.35823">
        <ele>203.93689</ele>
        <time>2011-05-03T13:23:08Z</time>
      </trkpt>
      <trkpt lat="46.88814" lon="5.35771">
        <ele>201.533569</ele>
        <time>2011-05-03T13:23:14Z</time>
      </trkpt>
      <trkpt lat="46.88813" lon="5.35762">
        <ele>201.052856</ele>
        <time>2011-05-03T13:23:15Z</time>
      </trkpt>
      <trkpt lat="46.88815" lon="5.35626">
        <ele>199.130127</ele>
        <time>2011-05-03T13:23:30Z</time>
      </trkpt>
      <trkpt lat="46.88817" lon="5.35607">
        <ele>198.649536</ele>
        <time>2011-05-03T13:23:39Z</time>
      </trkpt>
      <trkpt lat="46.88817" lon="5.35607">
        <ele>209.704834</ele>
        <time>2011-05-03T13:23:45Z</time>
      </trkpt>
      <trkpt lat="46.88817" lon="5.35608">
        <ele>199.61084</ele>
        <time>2011-05-03T13:23:46Z</time>
      </trkpt>
      <trkpt lat="46.88817" lon="5.35607">
        <ele>198.649536</ele>
        <time>2011-05-03T13:23:48Z</time>
      </trkpt>
      <trkpt lat="46.8882" lon="5.35599">
        <ele>199.61084</ele>
        <time>2011-05-03T13:24:33Z</time>
      </trkpt>
      <trkpt lat="46.8882" lon="5.35589">
        <ele>199.61084</ele>
        <time>2011-05-03T13:24:37Z</time>
      </trkpt>
      <trkpt lat="46.88797" lon="5.35537">
        <ele>201.533569</ele>
        <time>2011-05-03T13:24:53Z</time>
      </trkpt>
      <trkpt lat="46.88765" lon="5.35538">
        <ele>203.93689</ele>
        <time>2011-05-03T13:25:03Z</time>
      </trkpt>
      <trkpt lat="46.88725" lon="5.35564">
        <ele>203.93689</ele>
        <time>2011-05-03T13:25:15Z</time>
      </trkpt>
      <trkpt lat="46.88689" lon="5.35549">
        <ele>204.898071</ele>
        <time>2011-05-03T13:25:23Z</time>
      </trkpt>
      <trkpt lat="46.88669" lon="5.35548">
        <ele>204.41748</ele>
        <time>2011-05-03T13:25:27Z</time>
      </trkpt>
      <trkpt lat="46.88586" lon="5.35583">
        <ele>204.898071</ele>
        <time>2011-05-03T13:25:43Z</time>
      </trkpt>
      <trkpt lat="46.88558" lon="5.35581">
        <ele>204.41748</ele>
        <time>2011-05-03T13:25:48Z</time>
      </trkpt>
      <trkpt lat="46.88469" lon="5.35516">
        <ele>202.014282</ele>
        <time>2011-05-03T13:26:03Z</time>
      </trkpt>
      <trkpt lat="46.88361" lon="5.35421">
        <ele>204.41748</ele>
        <time>2011-05-03T13:26:23Z</time>
      </trkpt>
      <trkpt lat="46.88292" lon="5.35382">
        <ele>204.41748</ele>
        <time>2011-05-03T13:26:35Z</time>
      </trkpt>
      <trkpt lat="46.88285" lon="5.35344">
        <ele>204.898071</ele>
        <time>2011-05-03T13:26:42Z</time>
      </trkpt>
      <trkpt lat="46.8831" lon="5.35299">
        <ele>204.41748</ele>
        <time>2011-05-03T13:26:51Z</time>
      </trkpt>
      <trkpt lat="46.88317" lon="5.35281">
        <ele>204.41748</ele>
        <time>2011-05-03T13:26:54Z</time>
      </trkpt>
      <trkpt lat="46.8832" lon="5.35269">
        <ele>204.41748</ele>
        <time>2011-05-03T13:26:56Z</time>
      </trkpt>
      <trkpt lat="46.88323" lon="5.35248">
        <ele>204.41748</ele>
        <time>2011-05-03T13:26:59Z</time>
      </trkpt>
      <trkpt lat="46.88325" lon="5.35205">
        <ele>204.898071</ele>
        <time>2011-05-03T13:27:05Z</time>
      </trkpt>
      <trkpt lat="46.8832" lon="5.35152">
        <ele>202.494873</ele>
        <time>2011-05-03T13:27:12Z</time>
      </trkpt>
      <trkpt lat="46.8832" lon="5.35145">
        <ele>202.494873</ele>
        <time>2011-05-03T13:27:13Z</time>
      </trkpt>
      <trkpt lat="46.8833" lon="5.35095">
        <ele>202.494873</ele>
        <time>2011-05-03T13:27:20Z</time>
      </trkpt>
      <trkpt lat="46.88389" lon="5.34966">
        <ele>202.494873</ele>
        <time>2011-05-03T13:27:38Z</time>
      </trkpt>
      <trkpt lat="46.8839" lon="5.34866">
        <ele>200.572266</ele>
        <time>2011-05-03T13:27:49Z</time>
      </trkpt>
      <trkpt lat="46.88386" lon="5.34836">
        <ele>200.572266</ele>
        <time>2011-05-03T13:27:52Z</time>
      </trkpt>
      <trkpt lat="46.88402" lon="5.34719">
        <ele>201.533569</ele>
        <time>2011-05-03T13:28:05Z</time>
      </trkpt>
      <trkpt lat="46.88413" lon="5.34619">
        <ele>203.456177</ele>
        <time>2011-05-03T13:28:17Z</time>
      </trkpt>
      <trkpt lat="46.88434" lon="5.34572">
        <ele>204.898071</ele>
        <time>2011-05-03T13:28:24Z</time>
      </trkpt>
      <trkpt lat="46.88484" lon="5.34468">
        <ele>203.456177</ele>
        <time>2011-05-03T13:28:39Z</time>
      </trkpt>
      <trkpt lat="46.88561" lon="5.34345">
        <ele>202.975464</ele>
        <time>2011-05-03T13:28:58Z</time>
      </trkpt>
      <trkpt lat="46.88621" lon="5.34262">
        <ele>201.052856</ele>
        <time>2011-05-03T13:29:11Z</time>
      </trkpt>
      <trkpt lat="46.88633" lon="5.34216">
        <ele>200.572266</ele>
        <time>2011-05-03T13:29:16Z</time>
      </trkpt>
      <trkpt lat="46.8864" lon="5.34153">
        <ele>199.61084</ele>
        <time>2011-05-03T13:29:22Z</time>
      </trkpt>
      <trkpt lat="46.88691" lon="5.34015">
        <ele>195.284912</ele>
        <time>2011-05-03T13:29:36Z</time>
      </trkpt>
      <trkpt lat="46.88699" lon="5.33995">
        <ele>194.32373</ele>
        <time>2011-05-03T13:29:38Z</time>
      </trkpt>
      <trkpt lat="46.8871" lon="5.33977">
        <ele>194.32373</ele>
        <time>2011-05-03T13:29:40Z</time>
      </trkpt>
      <trkpt lat="46.88745" lon="5.33945">
        <ele>192.881714</ele>
        <time>2011-05-03T13:29:45Z</time>
      </trkpt>
      <trkpt lat="46.88785" lon="5.33917">
        <ele>190.478394</ele>
        <time>2011-05-03T13:29:50Z</time>
      </trkpt>
      <trkpt lat="46.88824" lon="5.33889">
        <ele>189.516968</ele>
        <time>2011-05-03T13:29:55Z</time>
      </trkpt>
      <trkpt lat="46.8883" lon="5.33883">
        <ele>189.036377</ele>
        <time>2011-05-03T13:29:56Z</time>
      </trkpt>
      <trkpt lat="46.88854" lon="5.33842">
        <ele>189.997681</ele>
        <time>2011-05-03T13:30:01Z</time>
      </trkpt>
      <trkpt lat="46.88893" lon="5.33652">
        <ele>189.997681</ele>
        <time>2011-05-03T13:30:22Z</time>
      </trkpt>
      <trkpt lat="46.88881" lon="5.33601">
        <ele>191.920288</ele>
        <time>2011-05-03T13:30:29Z</time>
      </trkpt>
      <trkpt lat="46.88872" lon="5.3359">
        <ele>192.401123</ele>
        <time>2011-05-03T13:30:31Z</time>
      </trkpt>
      <trkpt lat="46.88869" lon="5.3354">
        <ele>193.843018</ele>
        <time>2011-05-03T13:30:38Z</time>
      </trkpt>
      <trkpt lat="46.88904" lon="5.33438">
        <ele>195.284912</ele>
        <time>2011-05-03T13:30:55Z</time>
      </trkpt>
      <trkpt lat="46.88934" lon="5.33346">
        <ele>197.688232</ele>
        <time>2011-05-03T13:31:11Z</time>
      </trkpt>
      <trkpt lat="46.88978" lon="5.33201">
        <ele>197.688232</ele>
        <time>2011-05-03T13:31:32Z</time>
      </trkpt>
      <trkpt lat="46.8902" lon="5.33099">
        <ele>198.168945</ele>
        <time>2011-05-03T13:31:47Z</time>
      </trkpt>
      <trkpt lat="46.89047" lon="5.32958">
        <ele>200.091675</ele>
        <time>2011-05-03T13:32:05Z</time>
      </trkpt>
      <trkpt lat="46.89067" lon="5.32846">
        <ele>202.975464</ele>
        <time>2011-05-03T13:32:22Z</time>
      </trkpt>
      <trkpt lat="46.89086" lon="5.32794">
        <ele>202.494873</ele>
        <time>2011-05-03T13:32:36Z</time>
      </trkpt>
      <trkpt lat="46.89113" lon="5.32747">
        <ele>202.975464</ele>
        <time>2011-05-03T13:32:52Z</time>
      </trkpt>
      <trkpt lat="46.89147" lon="5.32691">
        <ele>202.975464</ele>
        <time>2011-05-03T13:33:11Z</time>
      </trkpt>
      <trkpt lat="46.89162" lon="5.32666">
        <ele>203.456177</ele>
        <time>2011-05-03T13:33:17Z</time>
      </trkpt>
      <trkpt lat="46.8921" lon="5.32566">
        <ele>202.975464</ele>
        <time>2011-05-03T13:33:35Z</time>
      </trkpt>
      <trkpt lat="46.89231" lon="5.32467">
        <ele>202.975464</ele>
        <time>2011-05-03T13:33:48Z</time>
      </trkpt>
      <trkpt lat="46.8924" lon="5.32437">
        <ele>202.494873</ele>
        <time>2011-05-03T13:33:52Z</time>
      </trkpt>
      <trkpt lat="46.89236" lon="5.32415">
        <ele>202.494873</ele>
        <time>2011-05-03T13:33:55Z</time>
      </trkpt>
      <trkpt lat="46.89231" lon="5.32375">
        <ele>202.975464</ele>
        <time>2011-05-03T13:34:02Z</time>
      </trkpt>
      <trkpt lat="46.89228" lon="5.32346">
        <ele>203.456177</ele>
        <time>2011-05-03T13:34:06Z</time>
      </trkpt>
      <trkpt lat="46.89245" lon="5.32305">
        <ele>204.41748</ele>
        <time>2011-05-03T13:34:11Z</time>
      </trkpt>
      <trkpt lat="46.89242" lon="5.32262">
        <ele>204.41748</ele>
        <time>2011-05-03T13:34:16Z</time>
      </trkpt>
      <trkpt lat="46.89238" lon="5.32202">
        <ele>204.41748</ele>
        <time>2011-05-03T13:34:23Z</time>
      </trkpt>
      <trkpt lat="46.89255" lon="5.32135">
        <ele>204.41748</ele>
        <time>2011-05-03T13:34:30Z</time>
      </trkpt>
      <trkpt lat="46.8927" lon="5.32019">
        <ele>205.378784</ele>
        <time>2011-05-03T13:34:41Z</time>
      </trkpt>
      <trkpt lat="46.89274" lon="5.31991">
        <ele>205.859497</ele>
        <time>2011-05-03T13:34:44Z</time>
      </trkpt>
      <trkpt lat="46.89284" lon="5.31921">
        <ele>206.340088</ele>
        <time>2011-05-03T13:34:52Z</time>
      </trkpt>
      <trkpt lat="46.89304" lon="5.31877">
        <ele>206.340088</ele>
        <time>2011-05-03T13:34:57Z</time>
      </trkpt>
      <trkpt lat="46.89317" lon="5.31858">
        <ele>205.859497</ele>
        <time>2011-05-03T13:35:00Z</time>
      </trkpt>
      <trkpt lat="46.89331" lon="5.31818">
        <ele>205.859497</ele>
        <time>2011-05-03T13:35:05Z</time>
      </trkpt>
      <trkpt lat="46.89335" lon="5.31801">
        <ele>205.859497</ele>
        <time>2011-05-03T13:35:07Z</time>
      </trkpt>
      <trkpt lat="46.89348" lon="5.317">
        <ele>203.93689</ele>
        <time>2011-05-03T13:35:19Z</time>
      </trkpt>
      <trkpt lat="46.8935" lon="5.31692">
        <ele>203.456177</ele>
        <time>2011-05-03T13:35:20Z</time>
      </trkpt>
      <trkpt lat="46.89358" lon="5.3166">
        <ele>202.975464</ele>
        <time>2011-05-03T13:35:24Z</time>
      </trkpt>
      <trkpt lat="46.89363" lon="5.31545">
        <ele>201.052856</ele>
        <time>2011-05-03T13:35:37Z</time>
      </trkpt>
      <trkpt lat="46.89364" lon="5.31519">
        <ele>200.572266</ele>
        <time>2011-05-03T13:35:40Z</time>
      </trkpt>
      <trkpt lat="46.89366" lon="5.31494">
        <ele>201.052856</ele>
        <time>2011-05-03T13:35:43Z</time>
      </trkpt>
      <trkpt lat="46.89362" lon="5.31416">
        <ele>200.572266</ele>
        <time>2011-05-03T13:35:51Z</time>
      </trkpt>
      <trkpt lat="46.8936" lon="5.31387">
        <ele>200.091675</ele>
        <time>2011-05-03T13:35:54Z</time>
      </trkpt>
      <trkpt lat="46.89355" lon="5.31213">
        <ele>198.649536</ele>
        <time>2011-05-03T13:36:12Z</time>
      </trkpt>
      <trkpt lat="46.89338" lon="5.31088">
        <ele>197.688232</ele>
        <time>2011-05-03T13:36:26Z</time>
      </trkpt>
      <trkpt lat="46.89287" lon="5.30941">
        <ele>197.20752</ele>
        <time>2011-05-03T13:36:45Z</time>
      </trkpt>
      <trkpt lat="46.89263" lon="5.30844">
        <ele>196.726929</ele>
        <time>2011-05-03T13:36:56Z</time>
      </trkpt>
      <trkpt lat="46.89258" lon="5.30737">
        <ele>194.32373</ele>
        <time>2011-05-03T13:37:06Z</time>
      </trkpt>
      <trkpt lat="46.89247" lon="5.30561">
        <ele>194.32373</ele>
        <time>2011-05-03T13:37:23Z</time>
      </trkpt>
      <trkpt lat="46.89241" lon="5.30514">
        <ele>194.32373</ele>
        <time>2011-05-03T13:37:29Z</time>
      </trkpt>
      <trkpt lat="46.89207" lon="5.30423">
        <ele>193.362305</ele>
        <time>2011-05-03T13:37:43Z</time>
      </trkpt>
      <trkpt lat="46.8918" lon="5.30372">
        <ele>192.401123</ele>
        <time>2011-05-03T13:37:56Z</time>
      </trkpt>
      <trkpt lat="46.89171" lon="5.30361">
        <ele>192.401123</ele>
        <time>2011-05-03T13:37:59Z</time>
      </trkpt>
      <trkpt lat="46.89138" lon="5.30346">
        <ele>192.881714</ele>
        <time>2011-05-03T13:38:06Z</time>
      </trkpt>
      <trkpt lat="46.8911" lon="5.30324">
        <ele>193.362305</ele>
        <time>2011-05-03T13:38:12Z</time>
      </trkpt>
      <trkpt lat="46.891" lon="5.30303">
        <ele>193.843018</ele>
        <time>2011-05-03T13:38:16Z</time>
      </trkpt>
      <trkpt lat="46.89092" lon="5.30273">
        <ele>192.881714</ele>
        <time>2011-05-03T13:38:27Z</time>
      </trkpt>
      <trkpt lat="46.89091" lon="5.30267">
        <ele>192.881714</ele>
        <time>2011-05-03T13:38:47Z</time>
      </trkpt>
      <trkpt lat="46.89088" lon="5.30264">
        <ele>192.881714</ele>
        <time>2011-05-03T13:38:50Z</time>
      </trkpt>
      <trkpt lat="46.89086" lon="5.30262">
        <ele>192.881714</ele>
        <time>2011-05-03T13:38:53Z</time>
      </trkpt>
      <trkpt lat="46.89082" lon="5.3026">
        <ele>192.881714</ele>
        <time>2011-05-03T13:39:14Z</time>
      </trkpt>
      <trkpt lat="46.89081" lon="5.30257">
        <ele>192.881714</ele>
        <time>2011-05-03T13:39:35Z</time>
      </trkpt>
      <trkpt lat="46.89082" lon="5.30254">
        <ele>193.362305</ele>
        <time>2011-05-03T13:47:37Z</time>
      </trkpt>
      <trkpt lat="46.89082" lon="5.30254">
        <ele>193.362305</ele>
        <time>2011-05-03T13:47:54Z</time>
      </trkpt>
      <trkpt lat="46.8909" lon="5.30266">
        <ele>193.843018</ele>
        <time>2011-05-03T13:48:01Z</time>
      </trkpt>
      <trkpt lat="46.89126" lon="5.30253">
        <ele>193.362305</ele>
        <time>2011-05-03T13:48:12Z</time>
      </trkpt>
      <trkpt lat="46.89174" lon="5.30233">
        <ele>192.401123</ele>
        <time>2011-05-03T13:48:27Z</time>
      </trkpt>
      <trkpt lat="46.89248" lon="5.30199">
        <ele>190.958984</ele>
        <time>2011-05-03T13:48:44Z</time>
      </trkpt>
      <trkpt lat="46.89328" lon="5.30189">
        <ele>189.997681</ele>
        <time>2011-05-03T13:48:58Z</time>
      </trkpt>
      <trkpt lat="46.8945" lon="5.30214">
        <ele>189.036377</ele>
        <time>2011-05-03T13:49:19Z</time>
      </trkpt>
      <trkpt lat="46.89559" lon="5.30196">
        <ele>188.555786</ele>
        <time>2011-05-03T13:49:37Z</time>
      </trkpt>
      <trkpt lat="46.89676" lon="5.30214">
        <ele>188.555786</ele>
        <time>2011-05-03T13:49:57Z</time>
      </trkpt>
      <trkpt lat="46.89757" lon="5.30173">
        <ele>189.516968</ele>
        <time>2011-05-03T13:50:12Z</time>
      </trkpt>
      <trkpt lat="46.8991" lon="5.30079">
        <ele>187.59436</ele>
        <time>2011-05-03T13:50:39Z</time>
      </trkpt>
      <trkpt lat="46.89954" lon="5.30052">
        <ele>185.671753</ele>
        <time>2011-05-03T13:50:46Z</time>
      </trkpt>
      <trkpt lat="46.90116" lon="5.29969">
        <ele>183.268433</ele>
        <time>2011-05-03T13:51:11Z</time>
      </trkpt>
      <trkpt lat="46.90297" lon="5.29919">
        <ele>181.826416</ele>
        <time>2011-05-03T13:51:39Z</time>
      </trkpt>
      <trkpt lat="46.90419" lon="5.29856">
        <ele>180.384521</ele>
        <time>2011-05-03T13:51:59Z</time>
      </trkpt>
      <trkpt lat="46.9053" lon="5.29781">
        <ele>176.539307</ele>
        <time>2011-05-03T13:52:16Z</time>
      </trkpt>
      <trkpt lat="46.9067" lon="5.29678">
        <ele>177.50061</ele>
        <time>2011-05-03T13:52:41Z</time>
      </trkpt>
      <trkpt lat="46.90684" lon="5.29668">
        <ele>177.02002</ele>
        <time>2011-05-03T13:52:44Z</time>
      </trkpt>
      <trkpt lat="46.90702" lon="5.2968">
        <ele>177.50061</ele>
        <time>2011-05-03T13:52:51Z</time>
      </trkpt>
      <trkpt lat="46.90709" lon="5.29708">
        <ele>177.50061</ele>
        <time>2011-05-03T13:52:57Z</time>
      </trkpt>
      <trkpt lat="46.90713" lon="5.29724">
        <ele>177.981201</ele>
        <time>2011-05-03T13:53:00Z</time>
      </trkpt>
      <trkpt lat="46.90758" lon="5.29881">
        <ele>177.981201</ele>
        <time>2011-05-03T13:53:24Z</time>
      </trkpt>
      <trkpt lat="46.90839" lon="5.30126">
        <ele>177.981201</ele>
        <time>2011-05-03T13:53:58Z</time>
      </trkpt>
      <trkpt lat="46.90916" lon="5.30386">
        <ele>177.981201</ele>
        <time>2011-05-03T13:54:34Z</time>
      </trkpt>
      <trkpt lat="46.90937" lon="5.30524">
        <ele>177.981201</ele>
        <time>2011-05-03T13:54:52Z</time>
      </trkpt>
      <trkpt lat="46.90975" lon="5.30667">
        <ele>178.461914</ele>
        <time>2011-05-03T13:55:11Z</time>
      </trkpt>
      <trkpt lat="46.91056" lon="5.30854">
        <ele>177.981201</ele>
        <time>2011-05-03T13:55:39Z</time>
      </trkpt>
      <trkpt lat="46.91138" lon="5.31083">
        <ele>178.461914</ele>
        <time>2011-05-03T13:56:11Z</time>
      </trkpt>
      <trkpt lat="46.91174" lon="5.31296">
        <ele>178.942627</ele>
        <time>2011-05-03T13:56:37Z</time>
      </trkpt>
      <trkpt lat="46.91208" lon="5.31475">
        <ele>178.942627</ele>
        <time>2011-05-03T13:57:01Z</time>
      </trkpt>
      <trkpt lat="46.91223" lon="5.31508">
        <ele>178.461914</ele>
        <time>2011-05-03T13:57:06Z</time>
      </trkpt>
      <trkpt lat="46.91292" lon="5.31673">
        <ele>179.423218</ele>
        <time>2011-05-03T13:57:30Z</time>
      </trkpt>
      <trkpt lat="46.91331" lon="5.31828">
        <ele>178.461914</ele>
        <time>2011-05-03T13:57:50Z</time>
      </trkpt>
      <trkpt lat="46.91336" lon="5.31984">
        <ele>177.02002</ele>
        <time>2011-05-03T13:58:09Z</time>
      </trkpt>
      <trkpt lat="46.91323" lon="5.32206">
        <ele>177.981201</ele>
        <time>2011-05-03T13:58:34Z</time>
      </trkpt>
      <trkpt lat="46.91301" lon="5.32336">
        <ele>177.50061</ele>
        <time>2011-05-03T13:58:49Z</time>
      </trkpt>
      <trkpt lat="46.91273" lon="5.32462">
        <ele>177.50061</ele>
        <time>2011-05-03T13:59:04Z</time>
      </trkpt>
      <trkpt lat="46.91269" lon="5.32521">
        <ele>177.981201</ele>
        <time>2011-05-03T13:59:11Z</time>
      </trkpt>
      <trkpt lat="46.91275" lon="5.32562">
        <ele>177.50061</ele>
        <time>2011-05-03T13:59:16Z</time>
      </trkpt>
      <trkpt lat="46.9134" lon="5.32688">
        <ele>178.942627</ele>
        <time>2011-05-03T13:59:34Z</time>
      </trkpt>
      <trkpt lat="46.91432" lon="5.32875">
        <ele>178.461914</ele>
        <time>2011-05-03T14:00:00Z</time>
      </trkpt>
      <trkpt lat="46.91491" lon="5.33016">
        <ele>177.02002</ele>
        <time>2011-05-03T14:00:18Z</time>
      </trkpt>
      <trkpt lat="46.91529" lon="5.33131">
        <ele>176.058594</ele>
        <time>2011-05-03T14:00:32Z</time>
      </trkpt>
      <trkpt lat="46.9157" lon="5.33311">
        <ele>177.02002</ele>
        <time>2011-05-03T14:00:53Z</time>
      </trkpt>
      <trkpt lat="46.91637" lon="5.33596">
        <ele>177.50061</ele>
        <time>2011-05-03T14:01:27Z</time>
      </trkpt>
      <trkpt lat="46.91698" lon="5.33853">
        <ele>177.50061</ele>
        <time>2011-05-03T14:01:58Z</time>
      </trkpt>
      <trkpt lat="46.91743" lon="5.34066">
        <ele>177.50061</ele>
        <time>2011-05-03T14:02:24Z</time>
      </trkpt>
      <trkpt lat="46.9175" lon="5.34143">
        <ele>180.384521</ele>
        <time>2011-05-03T14:02:37Z</time>
      </trkpt>
      <trkpt lat="46.91753" lon="5.34185">
        <ele>182.307129</ele>
        <time>2011-05-03T14:02:45Z</time>
      </trkpt>
      <trkpt lat="46.91763" lon="5.34251">
        <ele>185.671753</ele>
        <time>2011-05-03T14:02:58Z</time>
      </trkpt>
      <trkpt lat="46.9178" lon="5.34304">
        <ele>188.555786</ele>
        <time>2011-05-03T14:03:09Z</time>
      </trkpt>
      <trkpt lat="46.91809" lon="5.34378">
        <ele>190.958984</ele>
        <time>2011-05-03T14:03:24Z</time>
      </trkpt>
      <trkpt lat="46.91819" lon="5.34404">
        <ele>192.401123</ele>
        <time>2011-05-03T14:03:29Z</time>
      </trkpt>
      <trkpt lat="46.91836" lon="5.34451">
        <ele>194.804321</ele>
        <time>2011-05-03T14:03:39Z</time>
      </trkpt>
      <trkpt lat="46.91863" lon="5.34526">
        <ele>197.688232</ele>
        <time>2011-05-03T14:03:58Z</time>
      </trkpt>
      <trkpt lat="46.91872" lon="5.34555">
        <ele>198.168945</ele>
        <time>2011-05-03T14:04:08Z</time>
      </trkpt>
      <trkpt lat="46.91895" lon="5.3457">
        <ele>197.688232</ele>
        <time>2011-05-03T14:04:19Z</time>
      </trkpt>
      <trkpt lat="46.91938" lon="5.34614">
        <ele>197.20752</ele>
        <time>2011-05-03T14:04:41Z</time>
      </trkpt>
      <trkpt lat="46.91948" lon="5.34631">
        <ele>197.20752</ele>
        <time>2011-05-03T14:04:45Z</time>
      </trkpt>
      <trkpt lat="46.91953" lon="5.34646">
        <ele>196.726929</ele>
        <time>2011-05-03T14:04:48Z</time>
      </trkpt>
      <trkpt lat="46.91962" lon="5.34672">
        <ele>196.246338</ele>
        <time>2011-05-03T14:04:52Z</time>
      </trkpt>
      <trkpt lat="46.91975" lon="5.34702">
        <ele>195.284912</ele>
        <time>2011-05-03T14:04:56Z</time>
      </trkpt>
      <trkpt lat="46.92019" lon="5.34765">
        <ele>192.881714</ele>
        <time>2011-05-03T14:05:05Z</time>
      </trkpt>
      <trkpt lat="46.92077" lon="5.3485">
        <ele>189.516968</ele>
        <time>2011-05-03T14:05:15Z</time>
      </trkpt>
      <trkpt lat="46.92089" lon="5.34874">
        <ele>188.555786</ele>
        <time>2011-05-03T14:05:18Z</time>
      </trkpt>
      <trkpt lat="46.92113" lon="5.34916">
        <ele>185.671753</ele>
        <time>2011-05-03T14:05:23Z</time>
      </trkpt>
      <trkpt lat="46.92158" lon="5.35031">
        <ele>182.787842</ele>
        <time>2011-05-03T14:05:35Z</time>
      </trkpt>
      <trkpt lat="46.92185" lon="5.35062">
        <ele>181.345825</ele>
        <time>2011-05-03T14:05:43Z</time>
      </trkpt>
      <trkpt lat="46.92188" lon="5.3506">
        <ele>180.865234</ele>
        <time>2011-05-03T14:05:58Z</time>
      </trkpt>
      <trkpt lat="46.92222" lon="5.35049">
        <ele>181.826416</ele>
        <time>2011-05-03T14:06:07Z</time>
      </trkpt>
      <trkpt lat="46.92294" lon="5.35026">
        <ele>180.384521</ele>
        <time>2011-05-03T14:06:19Z</time>
      </trkpt>
      <trkpt lat="46.92407" lon="5.34995">
        <ele>177.50061</ele>
        <time>2011-05-03T14:06:36Z</time>
      </trkpt>
      <trkpt lat="46.92522" lon="5.34985">
        <ele>177.02002</ele>
        <time>2011-05-03T14:06:54Z</time>
      </trkpt>
      <trkpt lat="46.92735" lon="5.34968">
        <ele>177.981201</ele>
        <time>2011-05-03T14:07:25Z</time>
      </trkpt>
      <trkpt lat="46.92896" lon="5.34953">
        <ele>177.02002</ele>
        <time>2011-05-03T14:07:50Z</time>
      </trkpt>
      <trkpt lat="46.92984" lon="5.34961">
        <ele>177.50061</ele>
        <time>2011-05-03T14:08:04Z</time>
      </trkpt>
      <trkpt lat="46.93028" lon="5.34909">
        <ele>177.02002</ele>
        <time>2011-05-03T14:08:13Z</time>
      </trkpt>
      <trkpt lat="46.9307" lon="5.3479">
        <ele>177.50061</ele>
        <time>2011-05-03T14:08:28Z</time>
      </trkpt>
      <trkpt lat="46.93133" lon="5.34676">
        <ele>177.50061</ele>
        <time>2011-05-03T14:08:43Z</time>
      </trkpt>
      <trkpt lat="46.93185" lon="5.34539">
        <ele>177.02002</ele>
        <time>2011-05-03T14:09:00Z</time>
      </trkpt>
      <trkpt lat="46.93268" lon="5.34424">
        <ele>177.50061</ele>
        <time>2011-05-03T14:09:18Z</time>
      </trkpt>
      <trkpt lat="46.93367" lon="5.34394">
        <ele>177.02002</ele>
        <time>2011-05-03T14:09:33Z</time>
      </trkpt>
      <trkpt lat="46.9345" lon="5.34347">
        <ele>177.50061</ele>
        <time>2011-05-03T14:09:46Z</time>
      </trkpt>
      <trkpt lat="46.93469" lon="5.34335">
        <ele>177.981201</ele>
        <time>2011-05-03T14:09:49Z</time>
      </trkpt>
      <trkpt lat="46.93488" lon="5.34326">
        <ele>177.50061</ele>
        <time>2011-05-03T14:09:52Z</time>
      </trkpt>
      <trkpt lat="46.93511" lon="5.34319">
        <ele>178.942627</ele>
        <time>2011-05-03T14:09:56Z</time>
      </trkpt>
      <trkpt lat="46.93564" lon="5.34322">
        <ele>177.50061</ele>
        <time>2011-05-03T14:10:05Z</time>
      </trkpt>
      <trkpt lat="46.93579" lon="5.3432">
        <ele>177.02002</ele>
        <time>2011-05-03T14:10:08Z</time>
      </trkpt>
      <trkpt lat="46.93685" lon="5.34338">
        <ele>176.058594</ele>
        <time>2011-05-03T14:10:29Z</time>
      </trkpt>
      <trkpt lat="46.93766" lon="5.34351">
        <ele>176.058594</ele>
        <time>2011-05-03T14:10:44Z</time>
      </trkpt>
      <trkpt lat="46.93836" lon="5.34343">
        <ele>176.539307</ele>
        <time>2011-05-03T14:10:59Z</time>
      </trkpt>
      <trkpt lat="46.93872" lon="5.34417">
        <ele>176.058594</ele>
        <time>2011-05-03T14:11:13Z</time>
      </trkpt>
      <trkpt lat="46.93922" lon="5.34523">
        <ele>176.539307</ele>
        <time>2011-05-03T14:11:31Z</time>
      </trkpt>
      <trkpt lat="46.93935" lon="5.34545">
        <ele>176.539307</ele>
        <time>2011-05-03T14:11:35Z</time>
      </trkpt>
      <trkpt lat="46.94045" lon="5.34642">
        <ele>177.50061</ele>
        <time>2011-05-03T14:11:58Z</time>
      </trkpt>
      <trkpt lat="46.94149" lon="5.3475">
        <ele>178.461914</ele>
        <time>2011-05-03T14:12:21Z</time>
      </trkpt>
      <trkpt lat="46.94277" lon="5.34906">
        <ele>177.981201</ele>
        <time>2011-05-03T14:12:52Z</time>
      </trkpt>
      <trkpt lat="46.94364" lon="5.35044">
        <ele>177.50061</ele>
        <time>2011-05-03T14:13:15Z</time>
      </trkpt>
      <trkpt lat="46.9439" lon="5.35085">
        <ele>178.942627</ele>
        <time>2011-05-03T14:13:23Z</time>
      </trkpt>
      <trkpt lat="46.94413" lon="5.35122">
        <ele>177.981201</ele>
        <time>2011-05-03T14:13:31Z</time>
      </trkpt>
      <trkpt lat="46.94457" lon="5.35201">
        <ele>177.981201</ele>
        <time>2011-05-03T14:13:48Z</time>
      </trkpt>
      <trkpt lat="46.9449" lon="5.35269">
        <ele>178.461914</ele>
        <time>2011-05-03T14:14:03Z</time>
      </trkpt>
      <trkpt lat="46.9453" lon="5.35352">
        <ele>177.02002</ele>
        <time>2011-05-03T14:14:21Z</time>
      </trkpt>
      <trkpt lat="46.94587" lon="5.35472">
        <ele>177.50061</ele>
        <time>2011-05-03T14:14:45Z</time>
      </trkpt>
      <trkpt lat="46.94623" lon="5.35547">
        <ele>177.981201</ele>
        <time>2011-05-03T14:15:01Z</time>
      </trkpt>
      <trkpt lat="46.94653" lon="5.35608">
        <ele>177.02002</ele>
        <time>2011-05-03T14:15:15Z</time>
      </trkpt>
      <trkpt lat="46.9468" lon="5.35665">
        <ele>177.50061</ele>
        <time>2011-05-03T14:15:32Z</time>
      </trkpt>
      <trkpt lat="46.94709" lon="5.35725">
        <ele>177.50061</ele>
        <time>2011-05-03T14:15:48Z</time>
      </trkpt>
      <trkpt lat="46.94742" lon="5.35795">
        <ele>177.02002</ele>
        <time>2011-05-03T14:16:04Z</time>
      </trkpt>
      <trkpt lat="46.94815" lon="5.35938">
        <ele>177.50061</ele>
        <time>2011-05-03T14:16:30Z</time>
      </trkpt>
      <trkpt lat="46.94894" lon="5.36066">
        <ele>178.461914</ele>
        <time>2011-05-03T14:16:52Z</time>
      </trkpt>
      <trkpt lat="46.94923" lon="5.36107">
        <ele>177.981201</ele>
        <time>2011-05-03T14:17:00Z</time>
      </trkpt>
      <trkpt lat="46.95017" lon="5.36216">
        <ele>178.942627</ele>
        <time>2011-05-03T14:17:22Z</time>
      </trkpt>
      <trkpt lat="46.95099" lon="5.36287">
        <ele>178.461914</ele>
        <time>2011-05-03T14:17:40Z</time>
      </trkpt>
      <trkpt lat="46.95206" lon="5.36306">
        <ele>177.981201</ele>
        <time>2011-05-03T14:18:00Z</time>
      </trkpt>
      <trkpt lat="46.95308" lon="5.36365">
        <ele>177.981201</ele>
        <time>2011-05-03T14:18:20Z</time>
      </trkpt>
      <trkpt lat="46.95382" lon="5.36453">
        <ele>178.461914</ele>
        <time>2011-05-03T14:18:39Z</time>
      </trkpt>
      <trkpt lat="46.9543" lon="5.36567">
        <ele>178.461914</ele>
        <time>2011-05-03T14:18:58Z</time>
      </trkpt>
      <trkpt lat="46.95441" lon="5.36631">
        <ele>177.981201</ele>
        <time>2011-05-03T14:19:07Z</time>
      </trkpt>
      <trkpt lat="46.95447" lon="5.36677">
        <ele>178.461914</ele>
        <time>2011-05-03T14:19:14Z</time>
      </trkpt>
      <trkpt lat="46.9546" lon="5.36857">
        <ele>177.981201</ele>
        <time>2011-05-03T14:19:38Z</time>
      </trkpt>
      <trkpt lat="46.95463" lon="5.36904">
        <ele>177.981201</ele>
        <time>2011-05-03T14:19:44Z</time>
      </trkpt>
      <trkpt lat="46.95478" lon="5.36944">
        <ele>178.461914</ele>
        <time>2011-05-03T14:19:50Z</time>
      </trkpt>
      <trkpt lat="46.9556" lon="5.37027">
        <ele>178.942627</ele>
        <time>2011-05-03T14:20:09Z</time>
      </trkpt>
      <trkpt lat="46.95693" lon="5.37151">
        <ele>178.942627</ele>
        <time>2011-05-03T14:20:39Z</time>
      </trkpt>
      <trkpt lat="46.9575" lon="5.37204">
        <ele>179.423218</ele>
        <time>2011-05-03T14:20:52Z</time>
      </trkpt>
      <trkpt lat="46.95805" lon="5.37253">
        <ele>177.50061</ele>
        <time>2011-05-03T14:21:08Z</time>
      </trkpt>
      <trkpt lat="46.95809" lon="5.37247">
        <ele>177.50061</ele>
        <time>2011-05-03T14:21:22Z</time>
      </trkpt>
      <trkpt lat="46.95818" lon="5.3722">
        <ele>177.981201</ele>
        <time>2011-05-03T14:23:57Z</time>
      </trkpt>
      <trkpt lat="46.95845" lon="5.37148">
        <ele>178.942627</ele>
        <time>2011-05-03T14:24:12Z</time>
      </trkpt>
      <trkpt lat="46.95903" lon="5.36997">
        <ele>178.942627</ele>
        <time>2011-05-03T14:24:36Z</time>
      </trkpt>
      <trkpt lat="46.95979" lon="5.36833">
        <ele>179.423218</ele>
        <time>2011-05-03T14:25:01Z</time>
      </trkpt>
      <trkpt lat="46.96063" lon="5.36766">
        <ele>179.423218</ele>
        <time>2011-05-03T14:25:18Z</time>
      </trkpt>
      <trkpt lat="46.96079" lon="5.36758">
        <ele>179.423218</ele>
        <time>2011-05-03T14:25:21Z</time>
      </trkpt>
      <trkpt lat="46.96097" lon="5.36738">
        <ele>179.903809</ele>
        <time>2011-05-03T14:25:25Z</time>
      </trkpt>
      <trkpt lat="46.96179" lon="5.36568">
        <ele>178.942627</ele>
        <time>2011-05-03T14:25:50Z</time>
      </trkpt>
      <trkpt lat="46.9628" lon="5.36411">
        <ele>179.423218</ele>
        <time>2011-05-03T14:26:15Z</time>
      </trkpt>
      <trkpt lat="46.9639" lon="5.36313">
        <ele>179.423218</ele>
        <time>2011-05-03T14:26:36Z</time>
      </trkpt>
      <trkpt lat="46.9651" lon="5.36176">
        <ele>179.423218</ele>
        <time>2011-05-03T14:27:01Z</time>
      </trkpt>
      <trkpt lat="46.9664" lon="5.36043">
        <ele>180.384521</ele>
        <time>2011-05-03T14:27:27Z</time>
      </trkpt>
      <trkpt lat="46.9676" lon="5.35999">
        <ele>179.903809</ele>
        <time>2011-05-03T14:27:48Z</time>
      </trkpt>
      <trkpt lat="46.96964" lon="5.36019">
        <ele>180.384521</ele>
        <time>2011-05-03T14:28:23Z</time>
      </trkpt>
      <trkpt lat="46.97152" lon="5.36035">
        <ele>180.865234</ele>
        <time>2011-05-03T14:28:55Z</time>
      </trkpt>
      <trkpt lat="46.97312" lon="5.36047">
        <ele>180.384521</ele>
        <time>2011-05-03T14:29:22Z</time>
      </trkpt>
      <trkpt lat="46.9753" lon="5.36064">
        <ele>179.903809</ele>
        <time>2011-05-03T14:29:59Z</time>
      </trkpt>
      <trkpt lat="46.97717" lon="5.3608">
        <ele>180.384521</ele>
        <time>2011-05-03T14:30:31Z</time>
      </trkpt>
      <trkpt lat="46.97835" lon="5.36088">
        <ele>179.903809</ele>
        <time>2011-05-03T14:30:51Z</time>
      </trkpt>
      <trkpt lat="46.98003" lon="5.361">
        <ele>179.903809</ele>
        <time>2011-05-03T14:31:20Z</time>
      </trkpt>
      <trkpt lat="46.98122" lon="5.36131">
        <ele>180.384521</ele>
        <time>2011-05-03T14:31:41Z</time>
      </trkpt>
      <trkpt lat="46.98194" lon="5.36211">
        <ele>180.865234</ele>
        <time>2011-05-03T14:31:57Z</time>
      </trkpt>
      <trkpt lat="46.98271" lon="5.36384">
        <ele>181.345825</ele>
        <time>2011-05-03T14:32:21Z</time>
      </trkpt>
      <trkpt lat="46.98336" lon="5.36435">
        <ele>182.307129</ele>
        <time>2011-05-03T14:32:35Z</time>
      </trkpt>
      <trkpt lat="46.98425" lon="5.36487">
        <ele>181.826416</ele>
        <time>2011-05-03T14:32:53Z</time>
      </trkpt>
      <trkpt lat="46.9853" lon="5.36548">
        <ele>180.865234</ele>
        <time>2011-05-03T14:33:16Z</time>
      </trkpt>
      <trkpt lat="46.98551" lon="5.36561">
        <ele>180.865234</ele>
        <time>2011-05-03T14:33:21Z</time>
      </trkpt>
      <trkpt lat="46.98563" lon="5.36567">
        <ele>180.384521</ele>
        <time>2011-05-03T14:33:24Z</time>
      </trkpt>
      <trkpt lat="46.98646" lon="5.36637">
        <ele>181.826416</ele>
        <time>2011-05-03T14:33:46Z</time>
      </trkpt>
      <trkpt lat="46.98656" lon="5.36662">
        <ele>180.865234</ele>
        <time>2011-05-03T14:33:51Z</time>
      </trkpt>
      <trkpt lat="46.98659" lon="5.36676">
        <ele>182.307129</ele>
        <time>2011-05-03T14:33:55Z</time>
      </trkpt>
      <trkpt lat="46.98662" lon="5.36688">
        <ele>181.345825</ele>
        <time>2011-05-03T14:34:00Z</time>
      </trkpt>
      <trkpt lat="46.9867" lon="5.36694">
        <ele>181.345825</ele>
        <time>2011-05-03T14:34:04Z</time>
      </trkpt>
      <trkpt lat="46.98719" lon="5.36698">
        <ele>180.865234</ele>
        <time>2011-05-03T14:34:23Z</time>
      </trkpt>
      <trkpt lat="46.98773" lon="5.36706">
        <ele>181.345825</ele>
        <time>2011-05-03T14:34:40Z</time>
      </trkpt>
      <trkpt lat="46.98844" lon="5.36731">
        <ele>181.826416</ele>
        <time>2011-05-03T14:34:54Z</time>
      </trkpt>
      <trkpt lat="46.98914" lon="5.36761">
        <ele>183.749023</ele>
        <time>2011-05-03T14:35:06Z</time>
      </trkpt>
      <trkpt lat="46.98933" lon="5.36767">
        <ele>182.307129</ele>
        <time>2011-05-03T14:35:09Z</time>
      </trkpt>
      <trkpt lat="46.98959" lon="5.36774">
        <ele>182.307129</ele>
        <time>2011-05-03T14:35:13Z</time>
      </trkpt>
      <trkpt lat="46.99023" lon="5.36784">
        <ele>181.826416</ele>
        <time>2011-05-03T14:35:23Z</time>
      </trkpt>
      <trkpt lat="46.9912" lon="5.36749">
        <ele>180.865234</ele>
        <time>2011-05-03T14:35:40Z</time>
      </trkpt>
      <trkpt lat="46.99202" lon="5.36714">
        <ele>180.865234</ele>
        <time>2011-05-03T14:35:56Z</time>
      </trkpt>
      <trkpt lat="46.99269" lon="5.36675">
        <ele>179.903809</ele>
        <time>2011-05-03T14:36:12Z</time>
      </trkpt>
      <trkpt lat="46.99274" lon="5.36673">
        <ele>179.423218</ele>
        <time>2011-05-03T14:36:14Z</time>
      </trkpt>
      <trkpt lat="46.99281" lon="5.36677">
        <ele>179.903809</ele>
        <time>2011-05-03T14:36:17Z</time>
      </trkpt>
      <trkpt lat="46.99282" lon="5.36675">
        <ele>178.942627</ele>
        <time>2011-05-03T14:36:28Z</time>
      </trkpt>
      <trkpt lat="46.99282" lon="5.36677">
        <ele>179.423218</ele>
        <time>2011-05-03T14:36:30Z</time>
      </trkpt>
      <trkpt lat="46.99284" lon="5.36673">
        <ele>178.942627</ele>
        <time>2011-05-03T14:36:39Z</time>
      </trkpt>
      <trkpt lat="46.99284" lon="5.36673">
        <ele>178.942627</ele>
        <time>2011-05-03T14:36:57Z</time>
      </trkpt>
      <trkpt lat="46.99282" lon="5.36681">
        <ele>179.423218</ele>
        <time>2011-05-03T14:37:03Z</time>
      </trkpt>
      <trkpt lat="46.99278" lon="5.36735">
        <ele>179.903809</ele>
        <time>2011-05-03T14:37:16Z</time>
      </trkpt>
      <trkpt lat="46.99274" lon="5.36757">
        <ele>179.903809</ele>
        <time>2011-05-03T14:37:29Z</time>
      </trkpt>
      <trkpt lat="46.99272" lon="5.36768">
        <ele>179.903809</ele>
        <time>2011-05-03T14:37:36Z</time>
      </trkpt>
      <trkpt lat="46.9927" lon="5.3678">
        <ele>179.903809</ele>
        <time>2011-05-03T14:37:44Z</time>
      </trkpt>
      <trkpt lat="46.99271" lon="5.36782">
        <ele>179.903809</ele>
        <time>2011-05-03T14:37:46Z</time>
      </trkpt>
      <trkpt lat="46.99273" lon="5.36762">
        <ele>179.903809</ele>
        <time>2011-05-03T14:38:01Z</time>
      </trkpt>
      <trkpt lat="46.99274" lon="5.36763">
        <ele>179.903809</ele>
        <time>2011-05-03T14:38:20Z</time>
      </trkpt>
      <trkpt lat="46.99267" lon="5.36799">
        <ele>180.384521</ele>
        <time>2011-05-03T14:38:34Z</time>
      </trkpt>
      <trkpt lat="46.99259" lon="5.36874">
        <ele>182.307129</ele>
        <time>2011-05-03T14:38:50Z</time>
      </trkpt>
      <trkpt lat="46.99261" lon="5.3688">
        <ele>181.345825</ele>
        <time>2011-05-03T14:38:51Z</time>
      </trkpt>
      <trkpt lat="46.99262" lon="5.36899">
        <ele>181.826416</ele>
        <time>2011-05-03T14:38:54Z</time>
      </trkpt>
      <trkpt lat="46.99256" lon="5.36955">
        <ele>180.865234</ele>
        <time>2011-05-03T14:39:03Z</time>
      </trkpt>
      <trkpt lat="46.99261" lon="5.36987">
        <ele>181.345825</ele>
        <time>2011-05-03T14:39:08Z</time>
      </trkpt>
      <trkpt lat="46.9929" lon="5.37064">
        <ele>181.826416</ele>
        <time>2011-05-03T14:39:21Z</time>
      </trkpt>
      <trkpt lat="46.99323" lon="5.37082">
        <ele>182.307129</ele>
        <time>2011-05-03T14:39:29Z</time>
      </trkpt>
      <trkpt lat="46.99408" lon="5.37054">
        <ele>181.826416</ele>
        <time>2011-05-03T14:39:46Z</time>
      </trkpt>
      <trkpt lat="46.99483" lon="5.3708">
        <ele>181.826416</ele>
        <time>2011-05-03T14:40:01Z</time>
      </trkpt>
      <trkpt lat="46.99577" lon="5.37138">
        <ele>182.307129</ele>
        <time>2011-05-03T14:40:21Z</time>
      </trkpt>
      <trkpt lat="46.99667" lon="5.37205">
        <ele>182.787842</ele>
        <time>2011-05-03T14:40:42Z</time>
      </trkpt>
      <trkpt lat="46.99757" lon="5.37287">
        <ele>181.826416</ele>
        <time>2011-05-03T14:41:04Z</time>
      </trkpt>
      <trkpt lat="46.9988" lon="5.37381">
        <ele>182.787842</ele>
        <time>2011-05-03T14:41:30Z</time>
      </trkpt>
      <trkpt lat="46.99998" lon="5.37466">
        <ele>182.307129</ele>
        <time>2011-05-03T14:41:55Z</time>
      </trkpt>
      <trkpt lat="47.00083" lon="5.37526">
        <ele>182.787842</ele>
        <time>2011-05-03T14:42:14Z</time>
      </trkpt>
      <trkpt lat="47.00223" lon="5.37624">
        <ele>182.787842</ele>
        <time>2011-05-03T14:42:43Z</time>
      </trkpt>
      <trkpt lat="47.00363" lon="5.37709">
        <ele>182.787842</ele>
        <time>2011-05-03T14:43:11Z</time>
      </trkpt>
      <trkpt lat="47.00509" lon="5.37737">
        <ele>183.268433</ele>
        <time>2011-05-03T14:43:38Z</time>
      </trkpt>
      <trkpt lat="47.00658" lon="5.37748">
        <ele>182.787842</ele>
        <time>2011-05-03T14:44:05Z</time>
      </trkpt>
      <trkpt lat="47.00698" lon="5.37744">
        <ele>182.787842</ele>
        <time>2011-05-03T14:44:12Z</time>
      </trkpt>
      <trkpt lat="47.00782" lon="5.37773">
        <ele>182.307129</ele>
        <time>2011-05-03T14:44:27Z</time>
      </trkpt>
      <trkpt lat="47.00895" lon="5.37851">
        <ele>182.307129</ele>
        <time>2011-05-03T14:44:49Z</time>
      </trkpt>
      <trkpt lat="47.00971" lon="5.37987">
        <ele>182.307129</ele>
        <time>2011-05-03T14:45:10Z</time>
      </trkpt>
      <trkpt lat="47.01013" lon="5.38061">
        <ele>181.345825</ele>
        <time>2011-05-03T14:45:22Z</time>
      </trkpt>
      <trkpt lat="47.01059" lon="5.38173">
        <ele>182.307129</ele>
        <time>2011-05-03T14:45:39Z</time>
      </trkpt>
      <trkpt lat="47.01084" lon="5.38268">
        <ele>181.345825</ele>
        <time>2011-05-03T14:45:55Z</time>
      </trkpt>
      <trkpt lat="47.01097" lon="5.38316">
        <ele>180.865234</ele>
        <time>2011-05-03T14:46:06Z</time>
      </trkpt>
      <trkpt lat="47.01107" lon="5.38393">
        <ele>181.826416</ele>
        <time>2011-05-03T14:46:19Z</time>
      </trkpt>
      <trkpt lat="47.01123" lon="5.38495">
        <ele>182.307129</ele>
        <time>2011-05-03T14:46:35Z</time>
      </trkpt>
      <trkpt lat="47.01126" lon="5.38515">
        <ele>181.826416</ele>
        <time>2011-05-03T14:46:38Z</time>
      </trkpt>
      <trkpt lat="47.01134" lon="5.38636">
        <ele>180.865234</ele>
        <time>2011-05-03T14:46:55Z</time>
      </trkpt>
      <trkpt lat="47.01128" lon="5.38683">
        <ele>180.865234</ele>
        <time>2011-05-03T14:47:02Z</time>
      </trkpt>
      <trkpt lat="47.01098" lon="5.38794">
        <ele>181.345825</ele>
        <time>2011-05-03T14:47:18Z</time>
      </trkpt>
      <trkpt lat="47.01074" lon="5.38851">
        <ele>181.826416</ele>
        <time>2011-05-03T14:47:27Z</time>
      </trkpt>
      <trkpt lat="47.01064" lon="5.38875">
        <ele>182.307129</ele>
        <time>2011-05-03T14:47:32Z</time>
      </trkpt>
      <trkpt lat="47.0107" lon="5.38888">
        <ele>182.787842</ele>
        <time>2011-05-03T14:47:36Z</time>
      </trkpt>
      <trkpt lat="47.01124" lon="5.38906">
        <ele>183.268433</ele>
        <time>2011-05-03T14:47:52Z</time>
      </trkpt>
      <trkpt lat="47.01213" lon="5.38939">
        <ele>183.749023</ele>
        <time>2011-05-03T14:48:12Z</time>
      </trkpt>
      <trkpt lat="47.01303" lon="5.39007">
        <ele>183.749023</ele>
        <time>2011-05-03T14:48:32Z</time>
      </trkpt>
      <trkpt lat="47.01381" lon="5.39068">
        <ele>182.307129</ele>
        <time>2011-05-03T14:48:51Z</time>
      </trkpt>
      <trkpt lat="47.01468" lon="5.39136">
        <ele>182.307129</ele>
        <time>2011-05-03T14:49:11Z</time>
      </trkpt>
      <trkpt lat="47.01512" lon="5.3917">
        <ele>182.307129</ele>
        <time>2011-05-03T14:49:21Z</time>
      </trkpt>
      <trkpt lat="47.01635" lon="5.39276">
        <ele>182.787842</ele>
        <time>2011-05-03T14:49:50Z</time>
      </trkpt>
      <trkpt lat="47.01715" lon="5.39356">
        <ele>182.787842</ele>
        <time>2011-05-03T14:50:10Z</time>
      </trkpt>
      <trkpt lat="47.01786" lon="5.39418">
        <ele>183.749023</ele>
        <time>2011-05-03T14:50:27Z</time>
      </trkpt>
      <trkpt lat="47.01904" lon="5.39519">
        <ele>183.268433</ele>
        <time>2011-05-03T14:50:56Z</time>
      </trkpt>
      <trkpt lat="47.0192" lon="5.39533">
        <ele>182.787842</ele>
        <time>2011-05-03T14:51:00Z</time>
      </trkpt>
      <trkpt lat="47.02013" lon="5.39628">
        <ele>183.749023</ele>
        <time>2011-05-03T14:51:25Z</time>
      </trkpt>
      <trkpt lat="47.02104" lon="5.39723">
        <ele>184.710571</ele>
        <time>2011-05-03T14:51:49Z</time>
      </trkpt>
      <trkpt lat="47.02132" lon="5.39756">
        <ele>183.749023</ele>
        <time>2011-05-03T14:51:57Z</time>
      </trkpt>
      <trkpt lat="47.02208" lon="5.3984">
        <ele>184.229858</ele>
        <time>2011-05-03T14:52:18Z</time>
      </trkpt>
      <trkpt lat="47.02216" lon="5.39847">
        <ele>184.229858</ele>
        <time>2011-05-03T14:52:20Z</time>
      </trkpt>
      <trkpt lat="47.023" lon="5.39928">
        <ele>184.710571</ele>
        <time>2011-05-03T14:52:41Z</time>
      </trkpt>
      <trkpt lat="47.02373" lon="5.39999">
        <ele>183.749023</ele>
        <time>2011-05-03T14:53:00Z</time>
      </trkpt>
      <trkpt lat="47.02463" lon="5.40085">
        <ele>184.710571</ele>
        <time>2011-05-03T14:53:23Z</time>
      </trkpt>
      <trkpt lat="47.02559" lon="5.40169">
        <ele>184.710571</ele>
        <time>2011-05-03T14:53:48Z</time>
      </trkpt>
      <trkpt lat="47.02594" lon="5.402">
        <ele>184.229858</ele>
        <time>2011-05-03T14:53:57Z</time>
      </trkpt>
      <trkpt lat="47.02666" lon="5.40265">
        <ele>184.229858</ele>
        <time>2011-05-03T14:54:17Z</time>
      </trkpt>
      <trkpt lat="47.02773" lon="5.40339">
        <ele>184.229858</ele>
        <time>2011-05-03T14:54:44Z</time>
      </trkpt>
      <trkpt lat="47.0287" lon="5.40406">
        <ele>183.749023</ele>
        <time>2011-05-03T14:55:07Z</time>
      </trkpt>
      <trkpt lat="47.02962" lon="5.40466">
        <ele>184.229858</ele>
        <time>2011-05-03T14:55:31Z</time>
      </trkpt>
      <trkpt lat="47.03049" lon="5.40526">
        <ele>183.749023</ele>
        <time>2011-05-03T14:55:53Z</time>
      </trkpt>
      <trkpt lat="47.03077" lon="5.40552">
        <ele>183.268433</ele>
        <time>2011-05-03T14:56:00Z</time>
      </trkpt>
      <trkpt lat="47.03087" lon="5.40568">
        <ele>183.268433</ele>
        <time>2011-05-03T14:56:03Z</time>
      </trkpt>
      <trkpt lat="47.03097" lon="5.40588">
        <ele>183.268433</ele>
        <time>2011-05-03T14:56:07Z</time>
      </trkpt>
      <trkpt lat="47.03121" lon="5.4065">
        <ele>184.229858</ele>
        <time>2011-05-03T14:56:20Z</time>
      </trkpt>
      <trkpt lat="47.03117" lon="5.40687">
        <ele>183.268433</ele>
        <time>2011-05-03T14:56:27Z</time>
      </trkpt>
      <trkpt lat="47.03104" lon="5.40709">
        <ele>183.268433</ele>
        <time>2011-05-03T14:56:32Z</time>
      </trkpt>
      <trkpt lat="47.03058" lon="5.40742">
        <ele>183.749023</ele>
        <time>2011-05-03T14:56:44Z</time>
      </trkpt>
      <trkpt lat="47.03045" lon="5.40782">
        <ele>188.555786</ele>
        <time>2011-05-03T14:56:52Z</time>
      </trkpt>
      <trkpt lat="47.03047" lon="5.40787">
        <ele>188.555786</ele>
        <time>2011-05-03T14:56:53Z</time>
      </trkpt>
      <trkpt lat="47.03056" lon="5.40802">
        <ele>187.59436</ele>
        <time>2011-05-03T14:56:58Z</time>
      </trkpt>
      <trkpt lat="47.03059" lon="5.40806">
        <ele>188.075073</ele>
        <time>2011-05-03T14:57:00Z</time>
      </trkpt>
      <trkpt lat="47.03063" lon="5.40806">
        <ele>189.516968</ele>
        <time>2011-05-03T14:57:02Z</time>
      </trkpt>
      <trkpt lat="47.03067" lon="5.40802">
        <ele>188.555786</ele>
        <time>2011-05-03T14:57:04Z</time>
      </trkpt>
      <trkpt lat="47.03111" lon="5.40743">
        <ele>189.997681</ele>
        <time>2011-05-03T14:57:22Z</time>
      </trkpt>
      <trkpt lat="47.03194" lon="5.40717">
        <ele>189.997681</ele>
        <time>2011-05-03T14:57:40Z</time>
      </trkpt>
      <trkpt lat="47.03214" lon="5.40717">
        <ele>190.478394</ele>
        <time>2011-05-03T14:57:44Z</time>
      </trkpt>
      <trkpt lat="47.03233" lon="5.40725">
        <ele>189.997681</ele>
        <time>2011-05-03T14:57:48Z</time>
      </trkpt>
      <trkpt lat="47.03289" lon="5.408">
        <ele>186.633179</ele>
        <time>2011-05-03T14:58:01Z</time>
      </trkpt>
      <trkpt lat="47.03293" lon="5.40806">
        <ele>186.633179</ele>
        <time>2011-05-03T14:58:02Z</time>
      </trkpt>
      <trkpt lat="47.03314" lon="5.4082">
        <ele>185.191162</ele>
        <time>2011-05-03T14:58:06Z</time>
      </trkpt>
      <trkpt lat="47.03339" lon="5.40823">
        <ele>184.229858</ele>
        <time>2011-05-03T14:58:11Z</time>
      </trkpt>
      <trkpt lat="47.03356" lon="5.40816">
        <ele>183.749023</ele>
        <time>2011-05-03T14:58:15Z</time>
      </trkpt>
      <trkpt lat="47.03385" lon="5.40827">
        <ele>184.229858</ele>
        <time>2011-05-03T14:58:21Z</time>
      </trkpt>
      <trkpt lat="47.03408" lon="5.40848">
        <ele>184.229858</ele>
        <time>2011-05-03T14:58:26Z</time>
      </trkpt>
      <trkpt lat="47.03429" lon="5.40875">
        <ele>184.710571</ele>
        <time>2011-05-03T14:58:31Z</time>
      </trkpt>
      <trkpt lat="47.03506" lon="5.40989">
        <ele>183.268433</ele>
        <time>2011-05-03T14:58:52Z</time>
      </trkpt>
      <trkpt lat="47.03531" lon="5.41013">
        <ele>183.749023</ele>
        <time>2011-05-03T14:58:58Z</time>
      </trkpt>
      <trkpt lat="47.03548" lon="5.41019">
        <ele>183.749023</ele>
        <time>2011-05-03T14:59:02Z</time>
      </trkpt>
      <trkpt lat="47.03561" lon="5.41035">
        <ele>184.229858</ele>
        <time>2011-05-03T14:59:06Z</time>
      </trkpt>
      <trkpt lat="47.03564" lon="5.41044">
        <ele>183.749023</ele>
        <time>2011-05-03T14:59:08Z</time>
      </trkpt>
      <trkpt lat="47.03607" lon="5.41136">
        <ele>184.710571</ele>
        <time>2011-05-03T14:59:25Z</time>
      </trkpt>
      <trkpt lat="47.0362" lon="5.41155">
        <ele>184.229858</ele>
        <time>2011-05-03T14:59:29Z</time>
      </trkpt>
      <trkpt lat="47.03707" lon="5.41271">
        <ele>184.229858</ele>
        <time>2011-05-03T14:59:52Z</time>
      </trkpt>
      <trkpt lat="47.03744" lon="5.41315">
        <ele>183.749023</ele>
        <time>2011-05-03T15:00:01Z</time>
      </trkpt>
      <trkpt lat="47.03818" lon="5.41334">
        <ele>183.749023</ele>
        <time>2011-05-03T15:00:15Z</time>
      </trkpt>
      <trkpt lat="47.03839" lon="5.41327">
        <ele>184.229858</ele>
        <time>2011-05-03T15:00:19Z</time>
      </trkpt>
      <trkpt lat="47.03865" lon="5.41307">
        <ele>183.749023</ele>
        <time>2011-05-03T15:00:30Z</time>
      </trkpt>
      <trkpt lat="47.03865" lon="5.41307">
        <ele>183.268433</ele>
        <time>2011-05-03T15:00:50Z</time>
      </trkpt>
      <trkpt lat="47.03865" lon="5.41293">
        <ele>183.268433</ele>
        <time>2011-05-03T15:00:56Z</time>
      </trkpt>
      <trkpt lat="47.03862" lon="5.41287">
        <ele>183.268433</ele>
        <time>2011-05-03T15:00:58Z</time>
      </trkpt>
      <trkpt lat="47.03867" lon="5.41267">
        <ele>182.787842</ele>
        <time>2011-05-03T15:01:08Z</time>
      </trkpt>
      <trkpt lat="47.03871" lon="5.41264">
        <ele>183.268433</ele>
        <time>2011-05-03T15:01:13Z</time>
      </trkpt>
      <trkpt lat="47.03914" lon="5.41266">
        <ele>183.268433</ele>
        <time>2011-05-03T15:01:27Z</time>
      </trkpt>
      <trkpt lat="47.04033" lon="5.41267">
        <ele>184.229858</ele>
        <time>2011-05-03T15:01:51Z</time>
      </trkpt>
      <trkpt lat="47.04142" lon="5.41273">
        <ele>184.710571</ele>
        <time>2011-05-03T15:02:10Z</time>
      </trkpt>
      <trkpt lat="47.0429" lon="5.41275">
        <ele>184.710571</ele>
        <time>2011-05-03T15:02:36Z</time>
      </trkpt>
      <trkpt lat="47.04318" lon="5.41275">
        <ele>184.710571</ele>
        <time>2011-05-03T15:02:41Z</time>
      </trkpt>
      <trkpt lat="47.04341" lon="5.41278">
        <ele>184.710571</ele>
        <time>2011-05-03T15:02:45Z</time>
      </trkpt>
      <trkpt lat="47.04358" lon="5.41277">
        <ele>184.229858</ele>
        <time>2011-05-03T15:02:48Z</time>
      </trkpt>
      <trkpt lat="47.0449" lon="5.41296">
        <ele>184.710571</ele>
        <time>2011-05-03T15:03:12Z</time>
      </trkpt>
      <trkpt lat="47.04509" lon="5.41301">
        <ele>183.749023</ele>
        <time>2011-05-03T15:03:16Z</time>
      </trkpt>
      <trkpt lat="47.04596" lon="5.41328">
        <ele>184.229858</ele>
        <time>2011-05-03T15:03:33Z</time>
      </trkpt>
      <trkpt lat="47.04744" lon="5.41379">
        <ele>184.229858</ele>
        <time>2011-05-03T15:03:59Z</time>
      </trkpt>
      <trkpt lat="47.04766" lon="5.41391">
        <ele>184.229858</ele>
        <time>2011-05-03T15:04:03Z</time>
      </trkpt>
      <trkpt lat="47.04789" lon="5.4139">
        <ele>184.229858</ele>
        <time>2011-05-03T15:04:07Z</time>
      </trkpt>
      <trkpt lat="47.0484" lon="5.41395">
        <ele>183.749023</ele>
        <time>2011-05-03T15:04:16Z</time>
      </trkpt>
      <trkpt lat="47.04854" lon="5.41407">
        <ele>184.229858</ele>
        <time>2011-05-03T15:04:19Z</time>
      </trkpt>
      <trkpt lat="47.04873" lon="5.41404">
        <ele>184.229858</ele>
        <time>2011-05-03T15:04:23Z</time>
      </trkpt>
      <trkpt lat="47.04886" lon="5.41394">
        <ele>184.710571</ele>
        <time>2011-05-03T15:04:26Z</time>
      </trkpt>
      <trkpt lat="47.05015" lon="5.4139">
        <ele>184.710571</ele>
        <time>2011-05-03T15:04:48Z</time>
      </trkpt>
      <trkpt lat="47.05148" lon="5.41389">
        <ele>184.229858</ele>
        <time>2011-05-03T15:05:10Z</time>
      </trkpt>
      <trkpt lat="47.05218" lon="5.41392">
        <ele>184.229858</ele>
        <time>2011-05-03T15:05:22Z</time>
      </trkpt>
      <trkpt lat="47.05238" lon="5.41408">
        <ele>184.229858</ele>
        <time>2011-05-03T15:05:26Z</time>
      </trkpt>
      <trkpt lat="47.05258" lon="5.41405">
        <ele>183.749023</ele>
        <time>2011-05-03T15:05:30Z</time>
      </trkpt>
      <trkpt lat="47.05267" lon="5.41397">
        <ele>183.749023</ele>
        <time>2011-05-03T15:05:32Z</time>
      </trkpt>
      <trkpt lat="47.05324" lon="5.41389">
        <ele>183.749023</ele>
        <time>2011-05-03T15:05:45Z</time>
      </trkpt>
      <trkpt lat="47.05344" lon="5.41389">
        <ele>183.749023</ele>
        <time>2011-05-03T15:05:49Z</time>
      </trkpt>
      <trkpt lat="47.05404" lon="5.41387">
        <ele>183.749023</ele>
        <time>2011-05-03T15:06:00Z</time>
      </trkpt>
      <trkpt lat="47.05475" lon="5.41385">
        <ele>183.749023</ele>
        <time>2011-05-03T15:06:11Z</time>
      </trkpt>
      <trkpt lat="47.05555" lon="5.41385">
        <ele>184.229858</ele>
        <time>2011-05-03T15:06:23Z</time>
      </trkpt>
      <trkpt lat="47.05613" lon="5.41387">
        <ele>183.749023</ele>
        <time>2011-05-03T15:06:32Z</time>
      </trkpt>
      <trkpt lat="47.05641" lon="5.41399">
        <ele>184.710571</ele>
        <time>2011-05-03T15:06:37Z</time>
      </trkpt>
      <trkpt lat="47.05679" lon="5.41399">
        <ele>184.229858</ele>
        <time>2011-05-03T15:06:44Z</time>
      </trkpt>
      <trkpt lat="47.05696" lon="5.41391">
        <ele>184.229858</ele>
        <time>2011-05-03T15:06:48Z</time>
      </trkpt>
      <trkpt lat="47.05743" lon="5.41387">
        <ele>183.749023</ele>
        <time>2011-05-03T15:07:02Z</time>
      </trkpt>
      <trkpt lat="47.05773" lon="5.41375">
        <ele>183.749023</ele>
        <time>2011-05-03T15:07:17Z</time>
      </trkpt>
      <trkpt lat="47.05776" lon="5.41377">
        <ele>183.268433</ele>
        <time>2011-05-03T15:07:36Z</time>
      </trkpt>
      <trkpt lat="47.05777" lon="5.41375">
        <ele>183.749023</ele>
        <time>2011-05-03T15:08:27Z</time>
      </trkpt>
      <trkpt lat="47.05788" lon="5.41357">
        <ele>184.229858</ele>
        <time>2011-05-03T15:08:39Z</time>
      </trkpt>
      <trkpt lat="47.05814" lon="5.41308">
        <ele>184.710571</ele>
        <time>2011-05-03T15:08:55Z</time>
      </trkpt>
      <trkpt lat="47.05846" lon="5.41271">
        <ele>184.710571</ele>
        <time>2011-05-03T15:09:06Z</time>
      </trkpt>
      <trkpt lat="47.05854" lon="5.41269">
        <ele>184.710571</ele>
        <time>2011-05-03T15:09:08Z</time>
      </trkpt>
      <trkpt lat="47.05922" lon="5.41269">
        <ele>188.075073</ele>
        <time>2011-05-03T15:09:27Z</time>
      </trkpt>
      <trkpt lat="47.05938" lon="5.41269">
        <ele>188.555786</ele>
        <time>2011-05-03T15:09:35Z</time>
      </trkpt>
      <trkpt lat="47.05938" lon="5.41315">
        <ele>187.11377</ele>
        <time>2011-05-03T15:09:47Z</time>
      </trkpt>
      <trkpt lat="47.05946" lon="5.41441">
        <ele>188.075073</ele>
        <time>2011-05-03T15:10:05Z</time>
      </trkpt>
      <trkpt lat="47.05951" lon="5.41643">
        <ele>187.59436</ele>
        <time>2011-05-03T15:10:31Z</time>
      </trkpt>
      <trkpt lat="47.05953" lon="5.41798">
        <ele>188.075073</ele>
        <time>2011-05-03T15:10:50Z</time>
      </trkpt>
      <trkpt lat="47.05951" lon="5.42019">
        <ele>187.59436</ele>
        <time>2011-05-03T15:11:18Z</time>
      </trkpt>
      <trkpt lat="47.05948" lon="5.42263">
        <ele>187.59436</ele>
        <time>2011-05-03T15:11:48Z</time>
      </trkpt>
      <trkpt lat="47.05946" lon="5.42411">
        <ele>188.075073</ele>
        <time>2011-05-03T15:12:06Z</time>
      </trkpt>
      <trkpt lat="47.05946" lon="5.42586">
        <ele>188.075073</ele>
        <time>2011-05-03T15:12:27Z</time>
      </trkpt>
      <trkpt lat="47.05943" lon="5.4267">
        <ele>189.997681</ele>
        <time>2011-05-03T15:12:40Z</time>
      </trkpt>
      <trkpt lat="47.05944" lon="5.42674">
        <ele>190.478394</ele>
        <time>2011-05-03T15:12:42Z</time>
      </trkpt>
      <trkpt lat="47.05968" lon="5.42677">
        <ele>190.958984</ele>
        <time>2011-05-03T15:12:55Z</time>
      </trkpt>
      <trkpt lat="47.05971" lon="5.42708">
        <ele>188.555786</ele>
        <time>2011-05-03T15:13:02Z</time>
      </trkpt>
      <trkpt lat="47.05969" lon="5.42783">
        <ele>187.11377</ele>
        <time>2011-05-03T15:13:13Z</time>
      </trkpt>
      <trkpt lat="47.05969" lon="5.42835">
        <ele>187.11377</ele>
        <time>2011-05-03T15:13:20Z</time>
      </trkpt>
      <trkpt lat="47.05967" lon="5.42914">
        <ele>187.59436</ele>
        <time>2011-05-03T15:13:31Z</time>
      </trkpt>
      <trkpt lat="47.05963" lon="5.42937">
        <ele>187.59436</ele>
        <time>2011-05-03T15:13:34Z</time>
      </trkpt>
      <trkpt lat="47.05967" lon="5.42983">
        <ele>187.59436</ele>
        <time>2011-05-03T15:13:40Z</time>
      </trkpt>
      <trkpt lat="47.05971" lon="5.43162">
        <ele>187.59436</ele>
        <time>2011-05-03T15:14:02Z</time>
      </trkpt>
      <trkpt lat="47.05971" lon="5.43301">
        <ele>188.075073</ele>
        <time>2011-05-03T15:14:19Z</time>
      </trkpt>
      <trkpt lat="47.05972" lon="5.43489">
        <ele>188.555786</ele>
        <time>2011-05-03T15:14:42Z</time>
      </trkpt>
      <trkpt lat="47.05973" lon="5.43666">
        <ele>189.997681</ele>
        <time>2011-05-03T15:15:04Z</time>
      </trkpt>
      <trkpt lat="47.05975" lon="5.43713">
        <ele>189.997681</ele>
        <time>2011-05-03T15:15:10Z</time>
      </trkpt>
      <trkpt lat="47.05975" lon="5.43751">
        <ele>189.516968</ele>
        <time>2011-05-03T15:15:15Z</time>
      </trkpt>
      <trkpt lat="47.05943" lon="5.4384">
        <ele>189.516968</ele>
        <time>2011-05-03T15:15:28Z</time>
      </trkpt>
      <trkpt lat="47.05879" lon="5.43926">
        <ele>189.036377</ele>
        <time>2011-05-03T15:15:44Z</time>
      </trkpt>
      <trkpt lat="47.05801" lon="5.44032">
        <ele>189.036377</ele>
        <time>2011-05-03T15:16:02Z</time>
      </trkpt>
      <trkpt lat="47.0568" lon="5.44189">
        <ele>189.516968</ele>
        <time>2011-05-03T15:16:31Z</time>
      </trkpt>
      <trkpt lat="47.05672" lon="5.44198">
        <ele>189.516968</ele>
        <time>2011-05-03T15:16:33Z</time>
      </trkpt>
      <trkpt lat="47.05655" lon="5.44205">
        <ele>189.036377</ele>
        <time>2011-05-03T15:16:37Z</time>
      </trkpt>
      <trkpt lat="47.05633" lon="5.44241">
        <ele>189.036377</ele>
        <time>2011-05-03T15:16:43Z</time>
      </trkpt>
      <trkpt lat="47.05627" lon="5.44253">
        <ele>191.439575</ele>
        <time>2011-05-03T15:16:45Z</time>
      </trkpt>
      <trkpt lat="47.05614" lon="5.44272">
        <ele>190.478394</ele>
        <time>2011-05-03T15:16:49Z</time>
      </trkpt>
      <trkpt lat="47.05562" lon="5.44339">
        <ele>190.958984</ele>
        <time>2011-05-03T15:17:03Z</time>
      </trkpt>
      <trkpt lat="47.05551" lon="5.44365">
        <ele>190.958984</ele>
        <time>2011-05-03T15:17:07Z</time>
      </trkpt>
      <trkpt lat="47.05547" lon="5.44403">
        <ele>191.439575</ele>
        <time>2011-05-03T15:17:12Z</time>
      </trkpt>
      <trkpt lat="47.05576" lon="5.44511">
        <ele>191.439575</ele>
        <time>2011-05-03T15:17:27Z</time>
      </trkpt>
      <trkpt lat="47.05627" lon="5.44674">
        <ele>190.958984</ele>
        <time>2011-05-03T15:17:49Z</time>
      </trkpt>
      <trkpt lat="47.05699" lon="5.44896">
        <ele>191.920288</ele>
        <time>2011-05-03T15:18:18Z</time>
      </trkpt>
      <trkpt lat="47.05739" lon="5.4503">
        <ele>191.920288</ele>
        <time>2011-05-03T15:18:35Z</time>
      </trkpt>
      <trkpt lat="47.05753" lon="5.45075">
        <ele>192.881714</ele>
        <time>2011-05-03T15:18:41Z</time>
      </trkpt>
      <trkpt lat="47.05785" lon="5.45174">
        <ele>191.920288</ele>
        <time>2011-05-03T15:18:54Z</time>
      </trkpt>
      <trkpt lat="47.05811" lon="5.45258">
        <ele>191.920288</ele>
        <time>2011-05-03T15:19:05Z</time>
      </trkpt>
      <trkpt lat="47.05854" lon="5.45403">
        <ele>192.881714</ele>
        <time>2011-05-03T15:19:24Z</time>
      </trkpt>
      <trkpt lat="47.05893" lon="5.45522">
        <ele>193.362305</ele>
        <time>2011-05-03T15:19:41Z</time>
      </trkpt>
      <trkpt lat="47.05901" lon="5.45551">
        <ele>192.881714</ele>
        <time>2011-05-03T15:19:45Z</time>
      </trkpt>
      <trkpt lat="47.05936" lon="5.45656">
        <ele>192.401123</ele>
        <time>2011-05-03T15:20:01Z</time>
      </trkpt>
      <trkpt lat="47.05982" lon="5.45802">
        <ele>191.920288</ele>
        <time>2011-05-03T15:20:22Z</time>
      </trkpt>
      <trkpt lat="47.06013" lon="5.45909">
        <ele>191.439575</ele>
        <time>2011-05-03T15:20:37Z</time>
      </trkpt>
      <trkpt lat="47.06044" lon="5.46013">
        <ele>190.478394</ele>
        <time>2011-05-03T15:20:56Z</time>
      </trkpt>
      <trkpt lat="47.06061" lon="5.46054">
        <ele>190.478394</ele>
        <time>2011-05-03T15:21:08Z</time>
      </trkpt>
      <trkpt lat="47.06069" lon="5.46065">
        <ele>189.997681</ele>
        <time>2011-05-03T15:21:18Z</time>
      </trkpt>
      <trkpt lat="47.06065" lon="5.46059">
        <ele>190.478394</ele>
        <time>2011-05-03T15:21:21Z</time>
      </trkpt>
      <trkpt lat="47.06052" lon="5.46036">
        <ele>190.478394</ele>
        <time>2011-05-03T15:21:33Z</time>
      </trkpt>
      <trkpt lat="47.0607" lon="5.46065">
        <ele>190.478394</ele>
        <time>2011-05-03T15:21:47Z</time>
      </trkpt>
      <trkpt lat="47.06072" lon="5.46069">
        <ele>190.478394</ele>
        <time>2011-05-03T15:22:02Z</time>
      </trkpt>
      <trkpt lat="47.06072" lon="5.46069">
        <ele>189.997681</ele>
        <time>2011-05-03T15:22:57Z</time>
      </trkpt>
      <trkpt lat="47.06077" lon="5.46075">
        <ele>190.958984</ele>
        <time>2011-05-03T15:23:02Z</time>
      </trkpt>
      <trkpt lat="47.06095" lon="5.46103">
        <ele>191.439575</ele>
        <time>2011-05-03T15:23:13Z</time>
      </trkpt>
      <trkpt lat="47.06116" lon="5.46109">
        <ele>191.439575</ele>
        <time>2011-05-03T15:23:18Z</time>
      </trkpt>
      <trkpt lat="47.06163" lon="5.46145">
        <ele>190.958984</ele>
        <time>2011-05-03T15:23:28Z</time>
      </trkpt>
      <trkpt lat="47.06215" lon="5.46182">
        <ele>191.439575</ele>
        <time>2011-05-03T15:23:39Z</time>
      </trkpt>
      <trkpt lat="47.06292" lon="5.46235">
        <ele>191.439575</ele>
        <time>2011-05-03T15:23:54Z</time>
      </trkpt>
      <trkpt lat="47.06333" lon="5.46267">
        <ele>190.958984</ele>
        <time>2011-05-03T15:24:02Z</time>
      </trkpt>
      <trkpt lat="47.06412" lon="5.46337">
        <ele>191.439575</ele>
        <time>2011-05-03T15:24:18Z</time>
      </trkpt>
      <trkpt lat="47.06432" lon="5.46352">
        <ele>190.958984</ele>
        <time>2011-05-03T15:24:22Z</time>
      </trkpt>
      <trkpt lat="47.06519" lon="5.46418">
        <ele>190.478394</ele>
        <time>2011-05-03T15:24:39Z</time>
      </trkpt>
      <trkpt lat="47.0665" lon="5.46526">
        <ele>190.958984</ele>
        <time>2011-05-03T15:25:04Z</time>
      </trkpt>
      <trkpt lat="47.06755" lon="5.46607">
        <ele>190.958984</ele>
        <time>2011-05-03T15:25:25Z</time>
      </trkpt>
      <trkpt lat="47.06816" lon="5.46642">
        <ele>191.439575</ele>
        <time>2011-05-03T15:25:37Z</time>
      </trkpt>
      <trkpt lat="47.06927" lon="5.46727">
        <ele>191.920288</ele>
        <time>2011-05-03T15:26:00Z</time>
      </trkpt>
      <trkpt lat="47.07028" lon="5.46807">
        <ele>191.920288</ele>
        <time>2011-05-03T15:26:20Z</time>
      </trkpt>
      <trkpt lat="47.07097" lon="5.4686">
        <ele>191.920288</ele>
        <time>2011-05-03T15:26:34Z</time>
      </trkpt>
      <trkpt lat="47.07163" lon="5.46914">
        <ele>191.920288</ele>
        <time>2011-05-03T15:26:46Z</time>
      </trkpt>
      <trkpt lat="47.07258" lon="5.46985">
        <ele>193.843018</ele>
        <time>2011-05-03T15:27:05Z</time>
      </trkpt>
      <trkpt lat="47.07294" lon="5.47027">
        <ele>192.401123</ele>
        <time>2011-05-03T15:27:18Z</time>
      </trkpt>
      <trkpt lat="47.07375" lon="5.47098">
        <ele>191.920288</ele>
        <time>2011-05-03T15:27:34Z</time>
      </trkpt>
      <trkpt lat="47.07456" lon="5.47159">
        <ele>190.478394</ele>
        <time>2011-05-03T15:27:49Z</time>
      </trkpt>
      <trkpt lat="47.07561" lon="5.4724">
        <ele>192.401123</ele>
        <time>2011-05-03T15:28:10Z</time>
      </trkpt>
      <trkpt lat="47.07591" lon="5.47266">
        <ele>192.401123</ele>
        <time>2011-05-03T15:28:16Z</time>
      </trkpt>
      <trkpt lat="47.07617" lon="5.473">
        <ele>191.920288</ele>
        <time>2011-05-03T15:28:22Z</time>
      </trkpt>
      <trkpt lat="47.07695" lon="5.47428">
        <ele>191.920288</ele>
        <time>2011-05-03T15:28:40Z</time>
      </trkpt>
      <trkpt lat="47.07774" lon="5.47551">
        <ele>193.362305</ele>
        <time>2011-05-03T15:28:55Z</time>
      </trkpt>
      <trkpt lat="47.07888" lon="5.47727">
        <ele>194.32373</ele>
        <time>2011-05-03T15:29:14Z</time>
      </trkpt>
      <trkpt lat="47.07934" lon="5.47797">
        <ele>192.881714</ele>
        <time>2011-05-03T15:29:25Z</time>
      </trkpt>
      <trkpt lat="47.07985" lon="5.47879">
        <ele>193.362305</ele>
        <time>2011-05-03T15:29:42Z</time>
      </trkpt>
      <trkpt lat="47.08012" lon="5.47921">
        <ele>193.362305</ele>
        <time>2011-05-03T15:29:51Z</time>
      </trkpt>
      <trkpt lat="47.08054" lon="5.47986">
        <ele>193.362305</ele>
        <time>2011-05-03T15:30:07Z</time>
      </trkpt>
      <trkpt lat="47.08117" lon="5.48045">
        <ele>193.362305</ele>
        <time>2011-05-03T15:30:25Z</time>
      </trkpt>
      <trkpt lat="47.08193" lon="5.48133">
        <ele>193.843018</ele>
        <time>2011-05-03T15:30:46Z</time>
      </trkpt>
      <trkpt lat="47.08231" lon="5.48196">
        <ele>193.843018</ele>
        <time>2011-05-03T15:30:57Z</time>
      </trkpt>
      <trkpt lat="47.08246" lon="5.48217">
        <ele>193.843018</ele>
        <time>2011-05-03T15:31:01Z</time>
      </trkpt>
      <trkpt lat="47.08289" lon="5.48287">
        <ele>194.32373</ele>
        <time>2011-05-03T15:31:12Z</time>
      </trkpt>
      <trkpt lat="47.08382" lon="5.48396">
        <ele>194.804321</ele>
        <time>2011-05-03T15:31:34Z</time>
      </trkpt>
      <trkpt lat="47.08451" lon="5.48519">
        <ele>195.284912</ele>
        <time>2011-05-03T15:31:53Z</time>
      </trkpt>
      <trkpt lat="47.08504" lon="5.48604">
        <ele>194.804321</ele>
        <time>2011-05-03T15:32:07Z</time>
      </trkpt>
      <trkpt lat="47.08523" lon="5.48634">
        <ele>194.804321</ele>
        <time>2011-05-03T15:32:13Z</time>
      </trkpt>
      <trkpt lat="47.0858" lon="5.48726">
        <ele>194.32373</ele>
        <time>2011-05-03T15:32:27Z</time>
      </trkpt>
      <trkpt lat="47.08593" lon="5.48755">
        <ele>194.32373</ele>
        <time>2011-05-03T15:32:31Z</time>
      </trkpt>
      <trkpt lat="47.08622" lon="5.48818">
        <ele>194.804321</ele>
        <time>2011-05-03T15:32:40Z</time>
      </trkpt>
      <trkpt lat="47.08681" lon="5.48951">
        <ele>194.32373</ele>
        <time>2011-05-03T15:32:58Z</time>
      </trkpt>
      <trkpt lat="47.0869" lon="5.48973">
        <ele>194.804321</ele>
        <time>2011-05-03T15:33:01Z</time>
      </trkpt>
      <trkpt lat="47.08732" lon="5.49081">
        <ele>194.804321</ele>
        <time>2011-05-03T15:33:16Z</time>
      </trkpt>
      <trkpt lat="47.08748" lon="5.49111">
        <ele>196.246338</ele>
        <time>2011-05-03T15:33:20Z</time>
      </trkpt>
      <trkpt lat="47.08781" lon="5.49145">
        <ele>195.284912</ele>
        <time>2011-05-03T15:33:26Z</time>
      </trkpt>
      <trkpt lat="47.08839" lon="5.49179">
        <ele>195.765625</ele>
        <time>2011-05-03T15:33:37Z</time>
      </trkpt>
      <trkpt lat="47.08875" lon="5.49244">
        <ele>195.284912</ele>
        <time>2011-05-03T15:33:47Z</time>
      </trkpt>
      <trkpt lat="47.08872" lon="5.49268">
        <ele>196.726929</ele>
        <time>2011-05-03T15:33:51Z</time>
      </trkpt>
      <trkpt lat="47.08866" lon="5.49273">
        <ele>197.20752</ele>
        <time>2011-05-03T15:33:53Z</time>
      </trkpt>
      <trkpt lat="47.08871" lon="5.49306">
        <ele>196.246338</ele>
        <time>2011-05-03T15:33:58Z</time>
      </trkpt>
      <trkpt lat="47.08892" lon="5.49396">
        <ele>196.726929</ele>
        <time>2011-05-03T15:34:09Z</time>
      </trkpt>
      <trkpt lat="47.08898" lon="5.49421">
        <ele>197.20752</ele>
        <time>2011-05-03T15:34:19Z</time>
      </trkpt>
      <trkpt lat="47.08898" lon="5.49422">
        <ele>197.688232</ele>
        <time>2011-05-03T15:34:38Z</time>
      </trkpt>
      <trkpt lat="47.08879" lon="5.49434">
        <ele>197.688232</ele>
        <time>2011-05-03T15:34:50Z</time>
      </trkpt>
      <trkpt lat="47.08869" lon="5.49444">
        <ele>198.168945</ele>
        <time>2011-05-03T15:34:53Z</time>
      </trkpt>
      <trkpt lat="47.08749" lon="5.49522">
        <ele>198.649536</ele>
        <time>2011-05-03T15:35:16Z</time>
      </trkpt>
      <trkpt lat="47.0871" lon="5.495">
        <ele>198.168945</ele>
        <time>2011-05-03T15:35:23Z</time>
      </trkpt>
      <trkpt lat="47.08705" lon="5.49468">
        <ele>196.726929</ele>
        <time>2011-05-03T15:35:26Z</time>
      </trkpt>
      <trkpt lat="47.08705" lon="5.49444">
        <ele>195.765625</ele>
        <time>2011-05-03T15:35:28Z</time>
      </trkpt>
      <trkpt lat="47.08698" lon="5.49399">
        <ele>195.284912</ele>
        <time>2011-05-03T15:35:32Z</time>
      </trkpt>
      <trkpt lat="47.08686" lon="5.49359">
        <ele>194.804321</ele>
        <time>2011-05-03T15:35:36Z</time>
      </trkpt>
      <trkpt lat="47.08649" lon="5.49225">
        <ele>194.32373</ele>
        <time>2011-05-03T15:35:51Z</time>
      </trkpt>
      <trkpt lat="47.08646" lon="5.49217">
        <ele>194.32373</ele>
        <time>2011-05-03T15:35:52Z</time>
      </trkpt>
      <trkpt lat="47.08621" lon="5.49166">
        <ele>194.32373</ele>
        <time>2011-05-03T15:36:00Z</time>
      </trkpt>
      <trkpt lat="47.08607" lon="5.49148">
        <ele>194.32373</ele>
        <time>2011-05-03T15:36:04Z</time>
      </trkpt>
      <trkpt lat="47.08541" lon="5.4908">
        <ele>194.32373</ele>
        <time>2011-05-03T15:36:20Z</time>
      </trkpt>
      <trkpt lat="47.08528" lon="5.49063">
        <ele>194.32373</ele>
        <time>2011-05-03T15:36:23Z</time>
      </trkpt>
      <trkpt lat="47.08454" lon="5.48938">
        <ele>194.32373</ele>
        <time>2011-05-03T15:36:41Z</time>
      </trkpt>
      <trkpt lat="47.08412" lon="5.4887">
        <ele>194.804321</ele>
        <time>2011-05-03T15:36:51Z</time>
      </trkpt>
      <trkpt lat="47.08402" lon="5.48835">
        <ele>194.804321</ele>
        <time>2011-05-03T15:36:55Z</time>
      </trkpt>
      <trkpt lat="47.08381" lon="5.48816">
        <ele>194.804321</ele>
        <time>2011-05-03T15:36:59Z</time>
      </trkpt>
      <trkpt lat="47.08298" lon="5.48686">
        <ele>194.32373</ele>
        <time>2011-05-03T15:37:16Z</time>
      </trkpt>
      <trkpt lat="47.08194" lon="5.48554">
        <ele>194.32373</ele>
        <time>2011-05-03T15:37:33Z</time>
      </trkpt>
      <trkpt lat="47.08086" lon="5.48474">
        <ele>193.843018</ele>
        <time>2011-05-03T15:37:47Z</time>
      </trkpt>
      <trkpt lat="47.0805" lon="5.48498">
        <ele>195.284912</ele>
        <time>2011-05-03T15:37:53Z</time>
      </trkpt>
      <trkpt lat="47.07982" lon="5.487">
        <ele>195.765625</ele>
        <time>2011-05-03T15:38:13Z</time>
      </trkpt>
      <trkpt lat="47.07976" lon="5.4872">
        <ele>194.804321</ele>
        <time>2011-05-03T15:38:15Z</time>
      </trkpt>
      <trkpt lat="47.07912" lon="5.48912">
        <ele>196.246338</ele>
        <time>2011-05-03T15:38:34Z</time>
      </trkpt>
      <trkpt lat="47.07863" lon="5.4896">
        <ele>195.284912</ele>
        <time>2011-05-03T15:38:42Z</time>
      </trkpt>
      <trkpt lat="47.07816" lon="5.48935">
        <ele>195.284912</ele>
        <time>2011-05-03T15:38:49Z</time>
      </trkpt>
      <trkpt lat="47.07814" lon="5.48924">
        <ele>195.284912</ele>
        <time>2011-05-03T15:38:50Z</time>
      </trkpt>
      <trkpt lat="47.07808" lon="5.48903">
        <ele>195.765625</ele>
        <time>2011-05-03T15:38:52Z</time>
      </trkpt>
      <trkpt lat="47.07765" lon="5.48883">
        <ele>196.726929</ele>
        <time>2011-05-03T15:38:59Z</time>
      </trkpt>
      <trkpt lat="47.0776" lon="5.48889">
        <ele>196.246338</ele>
        <time>2011-05-03T15:39:00Z</time>
      </trkpt>
      <trkpt lat="47.07725" lon="5.48889">
        <ele>196.246338</ele>
        <time>2011-05-03T15:39:05Z</time>
      </trkpt>
      <trkpt lat="47.07694" lon="5.48926">
        <ele>196.246338</ele>
        <time>2011-05-03T15:39:11Z</time>
      </trkpt>
      <trkpt lat="47.07692" lon="5.48936">
        <ele>196.726929</ele>
        <time>2011-05-03T15:39:12Z</time>
      </trkpt>
      <trkpt lat="47.07674" lon="5.48987">
        <ele>197.20752</ele>
        <time>2011-05-03T15:39:18Z</time>
      </trkpt>
      <trkpt lat="47.07602" lon="5.49087">
        <ele>196.726929</ele>
        <time>2011-05-03T15:39:34Z</time>
      </trkpt>
      <trkpt lat="47.07552" lon="5.49103">
        <ele>195.765625</ele>
        <time>2011-05-03T15:39:43Z</time>
      </trkpt>
      <trkpt lat="47.07537" lon="5.49087">
        <ele>195.765625</ele>
        <time>2011-05-03T15:39:46Z</time>
      </trkpt>
      <trkpt lat="47.0752" lon="5.49064">
        <ele>194.32373</ele>
        <time>2011-05-03T15:39:54Z</time>
      </trkpt>
      <trkpt lat="47.0752" lon="5.49064">
        <ele>194.804321</ele>
        <time>2011-05-03T15:40:16Z</time>
      </trkpt>
      <trkpt lat="47.07519" lon="5.49064">
        <ele>195.284912</ele>
        <time>2011-05-03T15:40:20Z</time>
      </trkpt>
    </trkseg>
  </trk>
</gpx>